Time,TemperatureF,DewpointF,PressureIn,WindDirection,WindDirectionDegrees,WindSpeedMPH,WindSpeedGustMPH,Humidity,HourlyPrecipIn,Conditions,Clouds,dailyrainin,SoftwareType,DateUTC
2013-08-13 04:06:00,65.4,65.4,29.87,NW,307,0.0,0.0,100,-99.99,,,-99.99,VWS V14.01,2013-08-13 08:06:00,
2013-08-13 04:07:00,65.4,65.4,29.87,NW,307,0.0,0.0,100,-99.99,,,-99.99,VWS V14.01,2013-08-13 08:07:00,
2013-08-13 10:01:00,66.5,66.2,29.86,SE,132,0.0,0.0,99,-99.99,,,-99.99,VWS V14.01,2013-08-13 14:01:00,
2013-08-13 10:02:00,66.5,66.2,29.86,ESE,117,3.0,3.0,99,-99.99,,,-99.99,VWS V14.01,2013-08-13 14:02:00,
2013-08-13 10:03:00,66.5,66.1,29.84,ESE,122,0.0,3.2,99,-99.99,,,-99.99,VWS V14.01,2013-08-13 14:03:00,
2013-08-13 10:04:00,66.6,66.2,29.84,ESE,122,0.0,0.0,99,-99.99,,,-99.99,VWS V14.01,2013-08-13 14:04:00,
2013-08-13 10:05:00,66.7,66.3,29.84,ESE,122,0.0,0.0,99,-99.99,,,-99.99,VWS V14.01,2013-08-13 14:05:00,
2013-08-13 10:06:00,66.8,66.3,29.84,ESE,122,0.0,0.0,98,-99.99,,,-99.99,VWS V14.01,2013-08-13 14:06:00,
2013-08-13 10:07:00,66.8,66.3,29.84,ESE,122,0.0,0.0,98,-99.99,,,-99.99,VWS V14.01,2013-08-13 14:07:00,
2013-08-13 10:08:00,66.8,66.3,29.84,ESE,122,0.0,0.0,98,-99.99,,,-99.99,VWS V14.01,2013-08-13 14:08:00,
2013-08-13 10:09:00,66.9,66.4,29.84,ESE,122,0.0,0.0,98,-99.99,,,-99.99,VWS V14.01,2013-08-13 14:09:00,
2013-08-13 10:10:00,66.9,66.4,29.84,ESE,122,0.0,0.0,98,-99.99,,,-99.99,VWS V14.01,2013-08-13 14:10:00,
2013-08-13 10:11:00,67.0,66.5,29.84,ESE,122,0.0,0.0,98,-99.99,,,-99.99,VWS V14.01,2013-08-13 14:11:00,
2013-08-13 10:12:00,67.0,66.5,29.84,ESE,122,0.0,0.0,98,-99.99,,,-99.99,VWS V14.01,2013-08-13 14:12:00,
2013-08-13 10:13:00,67.0,66.4,29.84,ESE,122,0.0,0.0,98,-99.99,,,-99.99,VWS V14.01,2013-08-13 14:13:00,
2013-08-13 10:14:00,67.0,66.4,29.84,ESE,122,0.0,0.0,98,-99.99,,,-99.99,VWS V14.01,2013-08-13 14:14:00,
2013-08-13 10:15:00,67.0,66.4,29.84,ESE,122,0.0,0.0,98,-99.99,,,-99.99,VWS V14.01,2013-08-13 14:15:00,
2013-08-13 10:16:00,67.2,66.6,29.84,ESE,122,0.0,0.0,98,-99.99,,,-99.99,VWS V14.01,2013-08-13 14:16:00,
2013-08-13 10:17:00,67.2,66.6,29.84,ESE,122,0.0,0.0,98,-99.99,,,-99.99,VWS V14.01,2013-08-13 14:17:00,
2013-08-13 10:18:00,67.3,66.7,29.85,ESE,122,0.0,0.0,98,-99.99,,,-99.99,VWS V14.01,2013-08-13 14:18:00,
2013-08-13 10:19:00,67.3,66.7,29.85,ESE,122,0.0,0.0,98,-99.99,,,-99.99,VWS V14.01,2013-08-13 14:19:00,
2013-08-13 10:20:00,67.3,66.7,29.85,ESE,122,0.0,0.0,98,-99.99,,,-99.99,VWS V14.01,2013-08-13 14:20:00,
2013-08-13 10:21:00,67.3,66.5,29.85,ESE,122,0.0,0.0,97,-99.99,,,-99.99,VWS V14.01,2013-08-13 14:21:00,
2013-08-13 10:22:00,67.3,66.5,29.85,ESE,122,0.0,0.0,97,-99.99,,,-99.99,VWS V14.01,2013-08-13 14:22:00,
2013-08-13 10:23:00,67.3,66.5,29.85,ESE,122,0.0,0.0,97,-99.99,,,-99.99,VWS V14.01,2013-08-13 14:23:00,
2013-08-13 10:24:00,67.3,66.6,29.85,ESE,122,0.0,0.0,98,-99.99,,,-99.99,VWS V14.01,2013-08-13 14:24:00,
2013-08-13 10:25:00,67.4,66.7,29.85,ESE,122,0.0,0.0,98,-99.99,,,-99.99,VWS V14.01,2013-08-13 14:25:00,
2013-08-13 10:26:00,67.5,66.9,29.85,ESE,122,0.0,0.0,98,-99.99,,,-99.99,VWS V14.01,2013-08-13 14:26:00,
2013-08-13 10:27:00,67.5,66.9,29.85,ESE,122,0.0,0.0,98,-99.99,,,-99.99,VWS V14.01,2013-08-13 14:27:00,
2013-08-13 10:28:00,67.6,66.9,29.85,ESE,122,0.0,0.0,98,-99.99,,,-99.99,VWS V14.01,2013-08-13 14:28:00,
2013-08-13 10:29:00,67.7,67.0,29.85,ESE,122,0.0,0.0,98,-99.99,,,-99.99,VWS V14.01,2013-08-13 14:29:00,
2013-08-13 10:30:00,67.6,66.8,29.85,ESE,122,0.0,0.0,97,-99.99,,,-99.99,VWS V14.01,2013-08-13 14:30:00,
2013-08-13 10:31:00,67.9,67.0,29.85,NNE,13,6.6,6.6,97,-99.99,,,-99.99,VWS V14.01,2013-08-13 14:31:00,
2013-08-13 10:32:00,67.9,67.0,29.85,NW,314,6.7,6.7,97,-99.99,,,-99.99,VWS V14.01,2013-08-13 14:32:00,
2013-08-13 10:33:00,67.9,66.9,29.85,WNW,297,0.0,6.8,96,-99.99,,,-99.99,VWS V14.01,2013-08-13 14:33:00,
2013-08-13 10:34:00,67.9,66.7,29.85,WNW,290,0.0,3.1,96,-99.99,,,-99.99,VWS V14.01,2013-08-13 14:34:00,
2013-08-13 10:35:00,68.1,66.9,29.85,NNW,343,5.3,8.8,96,-99.99,,,-99.99,VWS V14.01,2013-08-13 14:35:00,
2013-08-13 10:36:00,68.1,66.7,29.85,WNW,287,0.0,5.5,95,-99.99,,,-99.99,VWS V14.01,2013-08-13 14:36:00,
2013-08-13 10:37:00,68.1,66.7,29.85,WNW,287,0.0,5.5,95,-99.99,,,-99.99,VWS V14.01,2013-08-13 14:37:00,
2013-08-13 10:38:00,68.2,66.8,29.85,WNW,287,0.0,0.0,95,-99.99,,,-99.99,VWS V14.01,2013-08-13 14:38:00,
2013-08-13 10:39:00,68.2,66.7,29.85,WNW,287,0.0,0.0,95,-99.99,,,-99.99,VWS V14.01,2013-08-13 14:39:00,
2013-08-13 10:40:00,68.3,66.7,29.85,WNW,287,0.0,0.0,95,-99.99,,,-99.99,VWS V14.01,2013-08-13 14:40:00,
2013-08-13 10:41:00,68.5,66.8,29.85,NW,305,2.9,5.8,94,-99.99,,,-99.99,VWS V14.01,2013-08-13 14:41:00,
2013-08-13 10:42:00,68.5,66.8,29.85,NW,305,2.9,5.8,94,-99.99,,,-99.99,VWS V14.01,2013-08-13 14:42:00,
2013-08-13 10:43:00,68.5,66.8,29.85,NW,305,0.0,2.9,94,-99.99,,,-99.99,VWS V14.01,2013-08-13 14:43:00,
2013-08-13 10:44:00,68.6,66.9,29.85,NW,305,0.0,0.0,94,-99.99,,,-99.99,VWS V14.01,2013-08-13 14:44:00,
2013-08-13 10:45:00,68.8,67.2,29.85,NW,305,0.0,0.0,94,-99.99,,,-99.99,VWS V14.01,2013-08-13 14:45:00,
2013-08-13 10:46:00,69.1,67.5,29.85,SSW,195,4.4,7.2,94,-99.99,,,-99.99,VWS V14.01,2013-08-13 14:46:00,
2013-08-13 10:47:00,69.2,67.6,29.85,SSW,195,2.5,7.2,94,-99.99,,,-99.99,VWS V14.01,2013-08-13 14:47:00,
2013-08-13 10:48:00,69.2,67.4,29.85,SSW,195,0.0,2.5,94,-99.99,,,-99.99,VWS V14.01,2013-08-13 14:48:00,
2013-08-13 10:49:00,69.4,67.5,29.85,SSW,195,0.0,0.0,94,-99.99,,,-99.99,VWS V14.01,2013-08-13 14:49:00,
2013-08-13 10:50:00,69.5,67.3,29.85,ESE,105,0.0,5.2,93,-99.99,,,-99.99,VWS V14.01,2013-08-13 14:50:00,
2013-08-13 10:51:00,69.7,67.2,29.85,SW,225,0.0,5.0,92,-99.99,,,-99.99,VWS V14.01,2013-08-13 14:51:00,
2013-08-13 10:52:00,69.7,67.2,29.85,SW,225,0.0,5.0,92,-99.99,,,-99.99,VWS V14.01,2013-08-13 14:52:00,
2013-08-13 10:53:00,69.8,67.1,29.85,North,359,7.2,7.2,91,-99.99,,,-99.99,VWS V14.01,2013-08-13 14:53:00,
2013-08-13 10:54:00,70.0,67.1,29.85,WNW,300,0.0,7.2,90,-99.99,,,-99.99,VWS V14.01,2013-08-13 14:54:00,
2013-08-13 10:55:00,70.1,67.1,29.85,SSW,200,0.0,4.7,90,-99.99,,,-99.99,VWS V14.01,2013-08-13 14:55:00,
2013-08-13 10:56:00,70.2,66.9,29.85,West,281,0.0,4.9,89,-99.99,,,-99.99,VWS V14.01,2013-08-13 14:56:00,
2013-08-13 10:57:00,70.2,66.9,29.85,West,281,0.0,4.9,89,-99.99,,,-99.99,VWS V14.01,2013-08-13 14:57:00,
2013-08-13 10:58:00,70.2,67.0,29.85,West,281,0.0,0.0,90,-99.99,,,-99.99,VWS V14.01,2013-08-13 14:58:00,
2013-08-13 10:59:00,70.3,67.0,29.85,West,281,0.0,0.0,89,-99.99,,,-99.99,VWS V14.01,2013-08-13 14:59:00,
2013-08-13 11:00:00,70.5,67.3,29.85,West,262,0.0,3.5,90,-99.99,,,-99.99,VWS V14.01,2013-08-13 15:00:00,
2013-08-13 11:01:00,70.7,67.2,29.85,West,262,0.0,0.0,89,-99.99,,,-99.99,VWS V14.01,2013-08-13 15:01:00,
2013-08-13 11:02:00,70.7,67.2,29.85,NW,323,6.5,7.0,89,-99.99,,,-99.99,VWS V14.01,2013-08-13 15:02:00,
2013-08-13 11:03:00,70.8,67.2,29.85,NW,315,0.0,6.5,88,-99.99,,,-99.99,VWS V14.01,2013-08-13 15:03:00,
2013-08-13 11:04:00,70.7,66.4,29.85,East,86,0.0,10.6,86,-99.99,,,-99.99,VWS V14.01,2013-08-13 15:04:00,
2013-08-13 11:05:00,70.8,66.6,29.85,East,86,0.0,0.0,86,-99.99,,,-99.99,VWS V14.01,2013-08-13 15:05:00,
2013-08-13 11:06:00,70.9,66.9,29.85,NW,326,4.7,9.1,87,-99.99,,,-99.99,VWS V14.01,2013-08-13 15:06:00,
2013-08-13 11:07:00,70.9,66.9,29.85,North,359,3.2,9.1,87,-99.99,,,-99.99,VWS V14.01,2013-08-13 15:07:00,
2013-08-13 11:08:00,71.0,66.6,29.85,SW,236,3.2,6.3,86,-99.99,,,-99.99,VWS V14.01,2013-08-13 15:08:00,
2013-08-13 11:09:00,71.1,66.8,29.85,West,269,0.0,4.4,86,-99.99,,,-99.99,VWS V14.01,2013-08-13 15:09:00,
2013-08-13 11:10:00,71.0,66.5,29.85,West,269,0.0,0.0,86,-99.99,,,-99.99,VWS V14.01,2013-08-13 15:10:00,
2013-08-13 11:11:00,71.1,66.3,29.84,SSE,150,0.0,2.6,85,-99.99,,,-99.99,VWS V14.01,2013-08-13 15:11:00,
2013-08-13 11:12:00,71.2,66.4,29.84,SSE,150,0.0,2.6,85,-99.99,,,-99.99,VWS V14.01,2013-08-13 15:12:00,
2013-08-13 11:13:00,71.2,66.5,29.84,NW,318,0.0,6.6,85,-99.99,,,-99.99,VWS V14.01,2013-08-13 15:13:00,
2013-08-13 11:14:00,71.2,66.4,29.85,NW,318,0.0,0.0,85,-99.99,,,-99.99,VWS V14.01,2013-08-13 15:14:00,
2013-08-13 11:15:00,71.3,66.5,29.85,WNW,297,0.0,5.7,85,-99.99,,,-99.99,VWS V14.01,2013-08-13 15:15:00,
2013-08-13 11:16:00,71.3,66.3,29.85,WNW,297,0.0,0.0,84,-99.99,,,-99.99,VWS V14.01,2013-08-13 15:16:00,
2013-08-13 11:17:00,71.4,66.3,29.85,WNW,297,0.0,0.0,84,-99.99,,,-99.99,VWS V14.01,2013-08-13 15:17:00,
2013-08-13 11:18:00,71.4,66.1,29.85,NW,322,5.7,7.1,83,-99.99,,,-99.99,VWS V14.01,2013-08-13 15:18:00,
2013-08-13 11:19:00,71.4,66.0,29.85,NW,314,0.0,7.9,83,-99.99,,,-99.99,VWS V14.01,2013-08-13 15:19:00,
2013-08-13 11:20:00,71.5,66.1,29.85,NW,314,0.0,0.0,83,-99.99,,,-99.99,VWS V14.01,2013-08-13 15:20:00,
2013-08-13 11:21:00,71.5,66.1,29.85,West,278,3.0,6.3,83,-99.99,,,-99.99,VWS V14.01,2013-08-13 15:21:00,
2013-08-13 11:22:00,71.5,66.0,29.85,West,278,0.0,6.3,83,-99.99,,,-99.99,VWS V14.01,2013-08-13 15:22:00,
2013-08-13 11:23:00,71.3,66.0,29.86,NW,314,5.0,5.0,83,-99.99,,,-99.99,VWS V14.01,2013-08-13 15:23:00,
2013-08-13 11:24:00,71.4,65.9,29.86,NW,314,0.0,5.0,83,-99.99,,,-99.99,VWS V14.01,2013-08-13 15:24:00,
2013-08-13 11:25:00,71.4,66.1,29.85,NW,314,0.0,0.0,83,-99.99,,,-99.99,VWS V14.01,2013-08-13 15:25:00,
2013-08-13 11:26:00,71.5,66.3,29.85,NW,314,0.0,0.0,84,-99.99,,,-99.99,VWS V14.01,2013-08-13 15:26:00,
2013-08-13 11:27:00,71.5,66.3,29.85,NW,314,0.0,0.0,84,-99.99,,,-99.99,VWS V14.01,2013-08-13 15:27:00,
2013-08-13 11:28:00,71.6,66.3,29.85,NW,314,0.0,0.0,84,-99.99,,,-99.99,VWS V14.01,2013-08-13 15:28:00,
2013-08-13 11:29:00,71.5,66.1,29.85,NW,314,0.0,0.0,83,-99.99,,,-99.99,VWS V14.01,2013-08-13 15:29:00,
2013-08-13 11:33:00,71.7,66.2,29.85,NW,314,0.0,0.0,83,-99.99,,,-99.99,VWS V14.01,2013-08-13 15:33:00,
2013-08-13 11:34:00,71.7,66.1,29.85,NW,314,0.0,0.0,83,-99.99,,,-99.99,VWS V14.01,2013-08-13 15:34:00,
2013-08-13 11:35:00,71.6,65.9,29.85,NW,314,0.0,2.5,82,-99.99,,,-99.99,VWS V14.01,2013-08-13 15:35:00,
2013-08-13 11:36:00,71.7,66.0,29.85,NW,314,0.0,0.0,82,-99.99,,,-99.99,VWS V14.01,2013-08-13 15:36:00,
2013-08-13 11:37:00,71.7,66.2,29.85,NW,314,0.0,0.0,83,-99.99,,,-99.99,VWS V14.01,2013-08-13 15:37:00,
2013-08-13 11:38:00,71.7,66.1,29.85,NW,304,3.2,6.8,82,-99.99,,,-99.99,VWS V14.01,2013-08-13 15:38:00,
2013-08-13 11:39:00,71.7,66.1,29.85,NW,309,3.3,6.8,82,-99.99,,,-99.99,VWS V14.01,2013-08-13 15:39:00,
2013-08-13 11:40:00,71.7,66.1,29.85,NW,307,3.2,6.2,82,-99.99,,,-99.99,VWS V14.01,2013-08-13 15:40:00,
2013-08-13 11:41:00,71.7,66.1,29.85,NW,307,3.2,3.2,82,-99.99,,,-99.99,VWS V14.01,2013-08-13 15:41:00,
2013-08-13 11:42:00,71.7,65.9,29.85,NW,307,0.0,3.2,82,-99.99,,,-99.99,VWS V14.01,2013-08-13 15:42:00,
2013-08-13 11:43:00,71.7,65.9,29.85,NW,308,0.0,3.4,82,-99.99,,,-99.99,VWS V14.01,2013-08-13 15:43:00,
2013-08-13 11:44:00,71.6,65.9,29.85,NW,308,0.0,3.4,82,-99.99,,,-99.99,VWS V14.01,2013-08-13 15:44:00,
2013-08-13 11:45:00,71.7,66.1,29.85,NW,308,0.0,0.0,83,-99.99,,,-99.99,VWS V14.01,2013-08-13 15:45:00,
2013-08-13 11:46:00,71.7,65.8,29.85,NW,308,0.0,0.0,82,-99.99,,,-99.99,VWS V14.01,2013-08-13 15:46:00,
2013-08-13 11:47:00,71.8,65.9,29.85,NW,308,0.0,0.0,82,-99.99,,,-99.99,VWS V14.01,2013-08-13 15:47:00,
2013-08-13 11:48:00,71.8,65.7,29.85,NW,308,0.0,0.0,81,-99.99,,,-99.99,VWS V14.01,2013-08-13 15:48:00,
2013-08-13 11:49:00,71.8,65.7,29.85,NW,308,0.0,0.0,81,-99.99,,,-99.99,VWS V14.01,2013-08-13 15:49:00,
2013-08-13 11:50:00,71.8,65.7,29.85,NW,308,0.0,0.0,81,-99.99,,,-99.99,VWS V14.01,2013-08-13 15:50:00,
2013-08-13 11:51:00,71.8,65.7,29.85,NW,308,0.0,0.0,81,-99.99,,,-99.99,VWS V14.01,2013-08-13 15:51:00,
2013-08-13 11:52:00,71.9,65.9,29.85,NW,308,0.0,0.0,82,-99.99,,,-99.99,VWS V14.01,2013-08-13 15:52:00,
2013-08-13 11:53:00,71.8,65.7,29.85,NW,319,9.1,9.6,81,-99.99,,,-99.99,VWS V14.01,2013-08-13 15:53:00,
2013-08-13 11:54:00,71.8,65.8,29.85,WSW,246,9.6,13.4,81,-99.99,,,-99.99,VWS V14.01,2013-08-13 15:54:00,
2013-08-13 11:55:00,71.8,66.0,29.86,North,359,0.0,11.1,82,-99.99,,,-99.99,VWS V14.01,2013-08-13 15:55:00,
2013-08-13 11:56:00,71.5,66.1,29.86,NNW,330,8.8,11.7,83,-99.99,,,-99.99,VWS V14.01,2013-08-13 15:56:00,
2013-08-13 11:57:00,71.4,66.2,29.86,North,10,5.3,13.9,84,-99.99,,,-99.99,VWS V14.01,2013-08-13 15:57:00,
2013-08-13 11:58:00,70.7,65.6,29.86,WNW,290,11.6,14.2,84,-99.99,,,-99.99,VWS V14.01,2013-08-13 15:58:00,
2013-08-13 11:59:00,70.6,65.6,29.86,NNW,336,4.2,14.2,84,-99.99,,,-99.99,VWS V14.01,2013-08-13 15:59:00,
2013-08-13 12:00:00,70.1,65.7,29.86,North,354,4.8,9.1,86,-99.99,,,-99.99,VWS V14.01,2013-08-13 16:00:00,
2013-08-13 12:01:00,69.9,66.2,29.86,West,267,0.0,5.9,88,-99.99,,,-99.99,VWS V14.01,2013-08-13 16:01:00,
2013-08-13 12:02:00,69.4,66.1,29.86,North,359,4.4,5.6,89,-99.99,,,-99.99,VWS V14.01,2013-08-13 16:02:00,
2013-08-13 12:03:00,69.0,66.2,29.86,WSW,238,5.4,6.1,91,-99.99,,,-99.99,VWS V14.01,2013-08-13 16:03:00,
2013-08-13 12:04:00,68.9,66.2,29.86,NNW,338,3.4,7.8,91,-99.99,,,-99.99,VWS V14.01,2013-08-13 16:04:00,
2013-08-13 12:05:00,68.5,66.1,29.86,NNW,340,0.0,0.0,92,-99.99,,,-99.99,VWS V14.01,2013-08-13 16:05:00,
2013-08-13 12:06:00,68.4,66.2,29.86,NW,322,6.1,7.8,93,-99.99,,,-99.99,VWS V14.01,2013-08-13 16:06:00,
2013-08-13 12:07:00,67.9,66.2,29.87,West,281,0.0,0.0,94,-99.99,,,-99.99,VWS V14.01,2013-08-13 16:07:00,
2013-08-13 12:08:00,67.9,66.1,29.86,West,281,0.0,2.5,94,-99.99,,,-99.99,VWS V14.01,2013-08-13 16:08:00,
2013-08-13 12:09:00,67.9,66.3,29.86,West,281,0.0,0.0,94,-99.99,,,-99.99,VWS V14.01,2013-08-13 16:09:00,
2013-08-13 12:10:00,67.7,66.3,29.87,West,281,0.0,0.0,95,-99.99,,,-99.99,VWS V14.01,2013-08-13 16:10:00,
2013-08-13 12:11:00,67.5,66.3,29.87,West,281,0.0,4.3,96,-99.99,,,-99.99,VWS V14.01,2013-08-13 16:11:00,
2013-08-13 12:12:00,67.3,66.3,29.87,NNW,335,0.0,0.0,96,-99.99,,,-99.99,VWS V14.01,2013-08-13 16:12:00,
2013-08-13 12:15:00,67.2,66.3,29.87,NNW,335,0.0,0.0,97,-99.99,,,-99.99,VWS V14.01,2013-08-13 16:15:00,
2013-08-13 12:16:00,67.2,66.5,29.87,NNW,335,0.0,0.0,98,-99.99,,,-99.99,VWS V14.01,2013-08-13 16:16:00,
2013-08-13 12:17:00,67.1,66.6,29.87,NNW,335,0.0,0.0,98,-99.99,,,-99.99,VWS V14.01,2013-08-13 16:17:00,
2013-08-13 12:18:00,67.1,66.6,29.87,NNW,335,0.0,0.0,98,-99.99,,,-99.99,VWS V14.01,2013-08-13 16:18:00,
2013-08-13 12:20:00,67.0,66.6,29.87,NNW,335,0.0,0.0,99,-99.99,,,-99.99,VWS V14.01,2013-08-13 16:20:00,
2013-08-13 12:21:00,67.1,66.7,29.87,NNW,335,0.0,0.0,99,-99.99,,,-99.99,VWS V14.01,2013-08-13 16:21:00,
2013-08-13 12:22:00,67.0,66.5,29.87,NNW,335,0.0,0.0,98,-99.99,,,-99.99,VWS V14.01,2013-08-13 16:22:00,
2013-08-13 12:23:00,67.0,66.6,29.87,NNW,335,0.0,0.0,98,-99.99,,,-99.99,VWS V14.01,2013-08-13 16:23:00,
2013-08-13 12:28:00,66.9,66.6,29.87,NNW,335,0.0,0.0,99,-99.99,,,-99.99,VWS V14.01,2013-08-13 16:28:00,
2013-08-13 12:29:00,66.9,66.6,29.87,NNW,335,0.0,0.0,99,-99.99,,,-99.99,VWS V14.01,2013-08-13 16:29:00,
2013-08-13 12:30:00,66.9,66.8,29.87,NNW,335,0.0,0.0,100,-99.99,,,-99.99,VWS V14.01,2013-08-13 16:30:00,
2013-08-13 12:31:00,67.0,66.9,29.87,NNW,335,0.0,0.0,100,-99.99,,,-99.99,VWS V14.01,2013-08-13 16:31:00,
2013-08-13 12:32:00,66.9,66.9,29.87,NNW,335,0.0,0.0,100,-99.99,,,-99.99,VWS V14.01,2013-08-13 16:32:00,
2013-08-13 12:33:00,66.9,66.8,29.87,NNW,335,0.0,0.0,100,-99.99,,,-99.99,VWS V14.01,2013-08-13 16:33:00,
2013-08-13 12:34:00,66.9,66.8,29.87,NNW,335,0.0,0.0,100,-99.99,,,-99.99,VWS V14.01,2013-08-13 16:34:00,
2013-08-13 12:35:00,67.0,67.0,29.87,NNW,335,0.0,0.0,100,-99.99,,,-99.99,VWS V14.01,2013-08-13 16:35:00,
2013-08-13 12:36:00,67.1,67.1,29.87,NNW,335,0.0,0.0,100,-99.99,,,-99.99,VWS V14.01,2013-08-13 16:36:00,
2013-08-13 12:37:00,67.1,67.1,29.87,NNW,335,0.0,0.0,100,-99.99,,,-99.99,VWS V14.01,2013-08-13 16:37:00,
2013-08-13 12:38:00,67.2,67.2,29.87,NNW,335,0.0,0.0,100,-99.99,,,-99.99,VWS V14.01,2013-08-13 16:38:00,
2013-08-13 12:39:00,67.2,67.2,29.87,NNW,335,0.0,0.0,100,-99.99,,,-99.99,VWS V14.01,2013-08-13 16:39:00,
2013-08-13 12:40:00,67.1,67.1,29.87,NNW,335,0.0,0.0,100,-99.99,,,-99.99,VWS V14.01,2013-08-13 16:40:00,
2013-08-13 12:41:00,67.0,67.0,29.87,NNW,335,0.0,0.0,100,-99.99,,,-99.99,VWS V14.01,2013-08-13 16:41:00,
2013-08-13 12:42:00,66.9,66.9,29.87,NNW,335,0.0,0.0,100,-99.99,,,-99.99,VWS V14.01,2013-08-13 16:42:00,
2013-08-13 12:43:00,66.9,66.9,29.87,NNW,335,0.0,0.0,100,-99.99,,,-99.99,VWS V14.01,2013-08-13 16:43:00,
2013-08-13 12:44:00,66.9,66.9,29.87,NNW,335,0.0,0.0,100,-99.99,,,-99.99,VWS V14.01,2013-08-13 16:44:00,
2013-08-13 12:45:00,66.8,66.8,29.87,NNW,335,0.0,0.0,100,-99.99,,,-99.99,VWS V14.01,2013-08-13 16:45:00,
2013-08-13 12:46:00,66.8,66.8,29.87,NNW,335,0.0,0.0,100,-99.99,,,-99.99,VWS V14.01,2013-08-13 16:46:00,
2013-08-13 12:47:00,66.8,66.8,29.87,NNW,335,0.0,0.0,100,-99.99,,,-99.99,VWS V14.01,2013-08-13 16:47:00,
2013-08-13 12:48:00,66.8,66.8,29.87,NNW,335,0.0,0.0,100,-99.99,,,-99.99,VWS V14.01,2013-08-13 16:48:00,
2013-08-13 12:49:00,66.8,66.8,29.87,NNW,335,0.0,0.0,100,-99.99,,,-99.99,VWS V14.01,2013-08-13 16:49:00,
2013-08-13 12:50:00,66.8,66.8,29.87,NNW,335,0.0,0.0,100,-99.99,,,-99.99,VWS V14.01,2013-08-13 16:50:00,
2013-08-13 12:51:00,66.7,66.7,29.87,NNW,335,0.0,0.0,100,-99.99,,,-99.99,VWS V14.01,2013-08-13 16:51:00,
2013-08-13 12:52:00,66.7,66.7,29.87,NNW,335,0.0,0.0,100,-99.99,,,-99.99,VWS V14.01,2013-08-13 16:52:00,
2013-08-13 12:53:00,66.8,66.8,29.87,NNW,335,0.0,0.0,100,-99.99,,,-99.99,VWS V14.01,2013-08-13 16:53:00,
2013-08-13 12:54:00,66.8,66.8,29.87,NNW,335,0.0,0.0,100,-99.99,,,-99.99,VWS V14.01,2013-08-13 16:54:00,
2013-08-13 12:55:00,66.7,66.7,29.87,NNW,335,0.0,0.0,100,-99.99,,,-99.99,VWS V14.01,2013-08-13 16:55:00,
2013-08-13 12:56:00,66.7,66.7,29.87,NNW,335,0.0,0.0,100,-99.99,,,-99.99,VWS V14.01,2013-08-13 16:56:00,
2013-08-13 12:57:00,66.6,66.6,29.87,NNW,335,0.0,0.0,100,-99.99,,,-99.99,VWS V14.01,2013-08-13 16:57:00,
2013-08-13 12:58:00,66.7,66.7,29.87,NNW,335,0.0,0.0,100,-99.99,,,-99.99,VWS V14.01,2013-08-13 16:58:00,
2013-08-13 12:59:00,66.7,66.7,29.87,NNW,335,0.0,0.0,100,-99.99,,,-99.99,VWS V14.01,2013-08-13 16:59:00,
2013-08-13 13:00:00,66.8,66.8,29.87,NNW,335,0.0,0.0,100,-99.99,,,-99.99,VWS V14.01,2013-08-13 17:00:00,
2013-08-13 13:01:00,66.8,66.8,29.87,NNW,335,0.0,0.0,100,-99.99,,,-99.99,VWS V14.01,2013-08-13 17:01:00,
2013-08-13 13:02:00,66.9,66.9,29.87,NNW,335,0.0,0.0,100,-99.99,,,-99.99,VWS V14.01,2013-08-13 17:02:00,
2013-08-13 13:03:00,66.9,66.9,29.87,NNW,335,0.0,0.0,100,-99.99,,,-99.99,VWS V14.01,2013-08-13 17:03:00,
2013-08-13 13:04:00,66.9,66.9,29.87,NNW,335,0.0,0.0,100,-99.99,,,-99.99,VWS V14.01,2013-08-13 17:04:00,
2013-08-13 13:05:00,67.1,67.1,29.87,NNW,335,0.0,0.0,100,-99.99,,,-99.99,VWS V14.01,2013-08-13 17:05:00,
2013-08-13 13:06:00,67.1,67.1,29.87,NNW,335,0.0,0.0,100,-99.99,,,-99.99,VWS V14.01,2013-08-13 17:06:00,
2013-08-13 13:07:00,67.3,67.3,29.87,NNW,335,0.0,0.0,100,-99.99,,,-99.99,VWS V14.01,2013-08-13 17:07:00,
2013-08-13 13:08:00,67.3,67.3,29.87,NNW,335,0.0,0.0,100,-99.99,,,-99.99,VWS V14.01,2013-08-13 17:08:00,
2013-08-13 13:09:00,67.3,67.3,29.87,NNW,335,0.0,0.0,100,-99.99,,,-99.99,VWS V14.01,2013-08-13 17:09:00,
2013-08-13 13:10:00,67.3,67.3,29.87,NNW,335,0.0,0.0,100,-99.99,,,-99.99,VWS V14.01,2013-08-13 17:10:00,
2013-08-13 13:11:00,67.2,67.2,29.87,NNW,335,0.0,0.0,100,-99.99,,,-99.99,VWS V14.01,2013-08-13 17:11:00,
2013-08-13 13:12:00,67.3,67.3,29.87,NNW,335,0.0,0.0,100,-99.99,,,-99.99,VWS V14.01,2013-08-13 17:12:00,
2013-08-13 13:13:00,67.4,67.4,29.87,NNW,335,0.0,0.0,100,-99.99,,,-99.99,VWS V14.01,2013-08-13 17:13:00,
2013-08-13 13:14:00,67.4,67.4,29.87,NNW,335,0.0,0.0,100,-99.99,,,-99.99,VWS V14.01,2013-08-13 17:14:00,
2013-08-13 13:15:00,67.3,67.3,29.87,NNW,335,0.0,0.0,100,-99.99,,,-99.99,VWS V14.01,2013-08-13 17:15:00,
2013-08-13 13:16:00,67.4,67.4,29.87,NNW,335,0.0,0.0,100,-99.99,,,-99.99,VWS V14.01,2013-08-13 17:16:00,
2013-08-13 13:17:00,67.5,67.5,29.87,NNW,335,0.0,0.0,100,-99.99,,,-99.99,VWS V14.01,2013-08-13 17:17:00,
2013-08-13 13:18:00,67.5,67.5,29.87,NNW,335,0.0,0.0,100,-99.99,,,-99.99,VWS V14.01,2013-08-13 17:18:00,
2013-08-13 13:19:00,67.5,67.5,29.87,NNW,335,0.0,0.0,100,-99.99,,,-99.99,VWS V14.01,2013-08-13 17:19:00,
2013-08-13 13:20:00,67.6,67.6,29.87,NNW,335,0.0,0.0,100,-99.99,,,-99.99,VWS V14.01,2013-08-13 17:20:00,
2013-08-13 13:21:00,67.7,67.7,29.87,NNW,335,0.0,0.0,100,-99.99,,,-99.99,VWS V14.01,2013-08-13 17:21:00,
2013-08-13 13:22:00,67.8,67.8,29.86,NNW,335,0.0,0.0,100,-99.99,,,-99.99,VWS V14.01,2013-08-13 17:22:00,
2013-08-13 13:23:00,67.9,67.9,29.86,NNW,335,0.0,0.0,100,-99.99,,,-99.99,VWS V14.01,2013-08-13 17:23:00,
2013-08-13 13:28:00,68.4,68.4,29.87,NNW,335,0.0,0.0,100,-99.99,,,-99.99,VWS V14.01,2013-08-13 17:28:00,
2013-08-13 13:29:00,68.4,68.4,29.86,NNW,335,0.0,0.0,100,-99.99,,,-99.99,VWS V14.01,2013-08-13 17:29:00,
2013-08-13 13:30:00,68.5,68.5,29.86,NNW,335,0.0,0.0,100,-99.99,,,-99.99,VWS V14.01,2013-08-13 17:30:00,
2013-08-13 13:31:00,68.5,68.5,29.86,NNW,335,0.0,0.0,100,-99.99,,,-99.99,VWS V14.01,2013-08-13 17:31:00,
2013-08-13 13:32:00,68.6,68.6,29.86,NNW,335,0.0,0.0,100,-99.99,,,-99.99,VWS V14.01,2013-08-13 17:32:00,
2013-08-13 13:33:00,68.8,68.8,29.86,NNW,335,0.0,0.0,100,-99.99,,,-99.99,VWS V14.01,2013-08-13 17:33:00,
2013-08-13 13:34:00,68.7,68.7,29.86,NNW,335,0.0,0.0,100,-99.99,,,-99.99,VWS V14.01,2013-08-13 17:34:00,
2013-08-13 13:35:00,68.8,68.8,29.86,NNW,335,0.0,0.0,100,-99.99,,,-99.99,VWS V14.01,2013-08-13 17:35:00,
2013-08-13 13:36:00,68.8,68.8,29.86,NNW,335,0.0,0.0,100,-99.99,,,-99.99,VWS V14.01,2013-08-13 17:36:00,
2013-08-13 13:37:00,68.7,68.7,29.86,NNW,335,0.0,0.0,100,-99.99,,,-99.99,VWS V14.01,2013-08-13 17:37:00,
2013-08-13 13:38:00,68.5,68.5,29.86,NNW,335,0.0,0.0,100,-99.99,,,-99.99,VWS V14.01,2013-08-13 17:38:00,
2013-08-13 13:39:00,68.6,68.5,29.86,NNW,335,0.0,0.0,100,-99.99,,,-99.99,VWS V14.01,2013-08-13 17:39:00,
2013-08-13 13:40:00,68.6,68.5,29.86,NNW,335,0.0,0.0,100,-99.99,,,-99.99,VWS V14.01,2013-08-13 17:40:00,
2013-08-13 13:41:00,68.6,68.4,29.86,NNW,335,0.0,0.0,99,-99.99,,,-99.99,VWS V14.01,2013-08-13 17:41:00,
2013-08-13 13:42:00,68.8,68.7,29.86,NNW,335,0.0,0.0,100,-99.99,,,-99.99,VWS V14.01,2013-08-13 17:42:00,
2013-08-13 13:43:00,68.8,68.2,29.86,NNW,335,0.0,0.0,98,-99.99,,,-99.99,VWS V14.01,2013-08-13 17:43:00,
2013-08-13 13:44:00,68.7,68.3,29.86,NNW,335,0.0,0.0,99,-99.99,,,-99.99,VWS V14.01,2013-08-13 17:44:00,
2013-08-13 13:45:00,68.8,68.2,29.86,NNW,335,0.0,0.0,98,-99.99,,,-99.99,VWS V14.01,2013-08-13 17:45:00,
2013-08-13 13:46:00,68.9,68.2,29.86,NNW,335,0.0,0.0,98,-99.99,,,-99.99,VWS V14.01,2013-08-13 17:46:00,
2013-08-13 13:47:00,69.0,68.1,29.86,NNW,335,0.0,0.0,97,-99.99,,,-99.99,VWS V14.01,2013-08-13 17:47:00,
2013-08-13 13:48:00,69.1,67.8,29.86,NNW,335,0.0,0.0,96,-99.99,,,-99.99,VWS V14.01,2013-08-13 17:48:00,
2013-08-13 13:49:00,69.1,67.9,29.86,NNW,335,0.0,0.0,96,-99.99,,,-99.99,VWS V14.01,2013-08-13 17:49:00,
2013-08-13 13:50:00,69.1,67.7,29.86,NNW,335,0.0,0.0,95,-99.99,,,-99.99,VWS V14.01,2013-08-13 17:50:00,
2013-08-13 13:51:00,69.1,67.5,29.86,NNW,335,0.0,0.0,94,-99.99,,,-99.99,VWS V14.01,2013-08-13 17:51:00,
2013-08-13 13:52:00,69.1,67.4,29.86,NNW,335,0.0,0.0,94,-99.99,,,-99.99,VWS V14.01,2013-08-13 17:52:00,
2013-08-13 13:53:00,69.2,67.3,29.86,NNW,335,0.0,0.0,94,-99.99,,,-99.99,VWS V14.01,2013-08-13 17:53:00,
2013-08-13 13:54:00,69.3,67.5,29.86,NNW,335,0.0,0.0,94,-99.99,,,-99.99,VWS V14.01,2013-08-13 17:54:00,
2013-08-13 13:55:00,69.2,67.2,29.86,NNW,335,0.0,0.0,93,-99.99,,,-99.99,VWS V14.01,2013-08-13 17:55:00,
2013-08-13 13:56:00,69.2,67.2,29.86,NNW,335,0.0,0.0,93,-99.99,,,-99.99,VWS V14.01,2013-08-13 17:56:00,
2013-08-13 13:57:00,69.4,67.4,29.86,NNW,335,0.0,0.0,93,-99.99,,,-99.99,VWS V14.01,2013-08-13 17:57:00,
2013-08-13 13:58:00,69.6,67.7,29.86,NNW,335,0.0,0.0,94,-99.99,,,-99.99,VWS V14.01,2013-08-13 17:58:00,
2013-08-13 13:59:00,69.5,67.6,29.86,NNW,335,0.0,0.0,94,-99.99,,,-99.99,VWS V14.01,2013-08-13 17:59:00,
2013-08-13 14:00:00,69.7,67.8,29.86,NNW,335,0.0,0.0,94,-99.99,,,-99.99,VWS V14.01,2013-08-13 18:00:00,
2013-08-13 14:01:00,69.7,67.8,29.86,NNW,335,0.0,0.0,94,-99.99,,,-99.99,VWS V14.01,2013-08-13 18:01:00,
2013-08-13 14:02:00,69.9,68.0,29.86,NNW,335,0.0,0.0,94,-99.99,,,-99.99,VWS V14.01,2013-08-13 18:02:00,
2013-08-13 14:03:00,69.8,66.7,29.87,NNW,335,0.0,0.0,90,-99.99,,,-99.99,VWS V14.01,2013-08-13 18:03:00,
2013-08-13 14:04:00,69.8,66.7,29.87,NNW,335,0.0,0.0,90,-99.99,,,-99.99,VWS V14.01,2013-08-13 18:04:00,
2013-08-13 14:07:00,69.8,66.7,29.86,NNW,335,0.0,0.0,90,-99.99,,,-99.99,VWS V14.01,2013-08-13 18:07:00,
2013-08-13 14:08:00,70.1,67.2,29.86,WNW,298,3.5,4.3,90,-99.99,,,-99.99,VWS V14.01,2013-08-13 18:08:00,
2013-08-13 14:09:00,70.0,66.9,29.86,NW,316,0.0,5.4,90,-99.99,,,-99.99,VWS V14.01,2013-08-13 18:09:00,
2013-08-13 14:10:00,70.2,67.3,29.86,West,262,3.2,4.3,91,-99.99,,,-99.99,VWS V14.01,2013-08-13 18:10:00,
2013-08-13 14:11:00,70.3,67.3,29.86,West,262,0.0,3.2,90,-99.99,,,-99.99,VWS V14.01,2013-08-13 18:11:00,
2013-08-13 14:12:00,70.3,66.8,29.86,West,262,0.0,0.0,89,-99.99,,,-99.99,VWS V14.01,2013-08-13 18:12:00,
2013-08-13 14:13:00,70.3,66.0,29.85,NNW,338,0.0,0.0,86,-99.99,,,-99.99,VWS V14.01,2013-08-13 18:13:00,
2013-08-13 14:14:00,70.3,66.3,29.85,NNW,338,0.0,4.3,87,-99.99,,,-99.99,VWS V14.01,2013-08-13 18:14:00,
2013-08-13 14:15:00,70.3,66.0,29.85,NNW,338,0.0,0.0,86,-99.99,,,-99.99,VWS V14.01,2013-08-13 18:15:00,
2013-08-13 14:16:00,70.6,66.6,29.85,WNW,302,0.0,4.3,87,-99.99,,,-99.99,VWS V14.01,2013-08-13 18:16:00,
2013-08-13 14:17:00,70.8,66.9,29.85,WNW,283,4.3,7.3,88,-99.99,,,-99.99,VWS V14.01,2013-08-13 18:17:00,
2013-08-13 14:18:00,70.8,65.5,29.85,WNW,295,0.0,6.6,83,-99.99,,,-99.99,VWS V14.01,2013-08-13 18:18:00,
2013-08-13 14:19:00,70.7,64.7,29.85,West,271,0.0,0.0,81,-99.99,,,-99.99,VWS V14.01,2013-08-13 18:19:00,
2013-08-13 14:20:00,70.9,65.6,29.85,WNW,295,0.0,6.6,83,-99.99,,,-99.99,VWS V14.01,2013-08-13 18:20:00,
2013-08-13 14:21:00,71.2,66.1,29.85,WNW,295,0.0,3.4,84,-99.99,,,-99.99,VWS V14.01,2013-08-13 18:21:00,
2013-08-13 14:22:00,71.2,66.3,29.85,WNW,295,0.0,0.0,84,-99.99,,,-99.99,VWS V14.01,2013-08-13 18:22:00,
2013-08-13 14:23:00,71.7,66.7,29.85,NNW,335,5.1,6.8,84,-99.99,,,-99.99,VWS V14.01,2013-08-13 18:23:00,
2013-08-13 14:24:00,71.5,66.5,29.85,WNW,295,0.0,4.3,84,-99.99,,,-99.99,VWS V14.01,2013-08-13 18:24:00,
2013-08-13 14:25:00,71.7,66.7,29.85,NW,325,5.5,7.1,84,-99.99,,,-99.99,VWS V14.01,2013-08-13 18:25:00,
2013-08-13 14:26:00,71.7,66.4,29.85,NW,314,0.0,5.5,84,-99.99,,,-99.99,VWS V14.01,2013-08-13 18:26:00,
2013-08-13 14:27:00,71.8,65.9,29.84,NW,314,0.0,3.5,82,-99.99,,,-99.99,VWS V14.01,2013-08-13 18:27:00,
2013-08-13 14:28:00,71.9,65.5,29.85,WNW,298,0.0,0.0,80,-99.99,,,-99.99,VWS V14.01,2013-08-13 18:28:00,
2013-08-13 14:29:00,71.8,65.2,29.85,WNW,298,0.0,8.4,80,-99.99,,,-99.99,VWS V14.01,2013-08-13 18:29:00,
2013-08-13 14:30:00,72.0,65.6,29.85,NW,309,3.4,3.4,80,-99.99,,,-99.99,VWS V14.01,2013-08-13 18:30:00,
2013-08-13 14:31:00,72.0,65.7,29.84,West,270,0.0,3.4,81,-99.99,,,-99.99,VWS V14.01,2013-08-13 18:31:00,
2013-08-13 14:32:00,72.2,66.1,29.85,WNW,290,4.5,5.0,81,-99.99,,,-99.99,VWS V14.01,2013-08-13 18:32:00,
2013-08-13 14:33:00,72.2,65.6,29.84,NW,318,0.0,0.0,80,-99.99,,,-99.99,VWS V14.01,2013-08-13 18:33:00,
2013-08-13 14:34:00,72.3,65.7,29.84,NW,318,0.0,0.0,80,-99.99,,,-99.99,VWS V14.01,2013-08-13 18:34:00,
2013-08-13 14:35:00,72.2,64.6,29.84,NW,318,0.0,0.0,77,-99.99,,,-99.99,VWS V14.01,2013-08-13 18:35:00,
2013-08-13 14:36:00,72.1,64.3,29.84,NW,318,0.0,0.0,77,-99.99,,,-99.99,VWS V14.01,2013-08-13 18:36:00,
2013-08-13 14:37:00,72.2,65.0,29.84,NW,318,4.2,4.2,78,-99.99,,,-99.99,VWS V14.01,2013-08-13 18:37:00,
2013-08-13 14:38:00,72.4,65.7,29.84,NNW,335,0.0,0.0,79,-99.99,,,-99.99,VWS V14.01,2013-08-13 18:38:00,
2013-08-13 14:39:00,72.3,65.5,29.84,NNW,335,0.0,7.5,79,-99.99,,,-99.99,VWS V14.01,2013-08-13 18:39:00,
2013-08-13 14:40:00,72.4,65.7,29.84,NW,322,6.5,7.0,80,-99.99,,,-99.99,VWS V14.01,2013-08-13 18:40:00,
2013-08-13 14:41:00,72.5,64.9,29.84,WSW,249,0.0,6.5,77,-99.99,,,-99.99,VWS V14.01,2013-08-13 18:41:00,
2013-08-13 14:42:00,72.5,64.6,29.84,WSW,249,0.0,0.0,76,-99.99,,,-99.99,VWS V14.01,2013-08-13 18:42:00,
2013-08-13 14:43:00,72.5,64.4,29.84,WSW,249,0.0,0.0,76,-99.99,,,-99.99,VWS V14.01,2013-08-13 18:43:00,
2013-08-13 14:44:00,72.4,64.0,29.84,WSW,249,0.0,0.0,75,-99.99,,,-99.99,VWS V14.01,2013-08-13 18:44:00,
2013-08-13 14:45:00,72.6,64.8,29.84,WNW,287,2.3,2.3,76,-99.99,,,-99.99,VWS V14.01,2013-08-13 18:45:00,
2013-08-13 14:46:00,72.7,65.1,29.84,WNW,297,0.0,4.2,77,-99.99,,,-99.99,VWS V14.01,2013-08-13 18:46:00,
2013-08-13 14:47:00,72.6,64.3,29.84,WNW,297,0.0,0.0,75,-99.99,,,-99.99,VWS V14.01,2013-08-13 18:47:00,
2013-08-13 14:48:00,72.5,64.4,29.83,WNW,284,0.0,3.4,76,-99.99,,,-99.99,VWS V14.01,2013-08-13 18:48:00,
2013-08-13 14:49:00,72.6,64.3,29.83,WNW,297,0.0,0.0,75,-99.99,,,-99.99,VWS V14.01,2013-08-13 18:49:00,
2013-08-13 14:50:00,72.7,64.7,29.83,WNW,284,0.0,3.4,76,-99.99,,,-99.99,VWS V14.01,2013-08-13 18:50:00,
2013-08-13 14:51:00,72.7,64.6,29.83,WNW,284,0.0,3.0,76,-99.99,,,-99.99,VWS V14.01,2013-08-13 18:51:00,
2013-08-13 14:52:00,72.7,64.8,29.83,NW,305,0.0,4.6,76,-99.99,,,-99.99,VWS V14.01,2013-08-13 18:52:00,
2013-08-13 14:53:00,72.7,64.6,29.83,NW,308,5.0,5.3,76,-99.99,,,-99.99,VWS V14.01,2013-08-13 18:53:00,
2013-08-13 14:54:00,72.5,63.9,29.83,NW,308,2.9,5.7,74,-99.99,,,-99.99,VWS V14.01,2013-08-13 18:54:00,
2013-08-13 14:55:00,72.6,64.8,29.83,NW,308,5.7,6.4,76,-99.99,,,-99.99,VWS V14.01,2013-08-13 18:55:00,
2013-08-13 14:56:00,72.6,64.8,29.83,WSW,240,0.0,5.7,77,-99.99,,,-99.99,VWS V14.01,2013-08-13 18:56:00,
2013-08-13 14:57:00,72.5,64.4,29.83,WSW,240,0.0,0.0,76,-99.99,,,-99.99,VWS V14.01,2013-08-13 18:57:00,
2013-08-13 14:58:00,72.4,64.3,29.83,WNW,300,2.8,2.8,76,-99.99,,,-99.99,VWS V14.01,2013-08-13 18:58:00,
2013-08-13 14:59:00,72.4,64.4,29.83,WNW,300,0.0,5.1,76,-99.99,,,-99.99,VWS V14.01,2013-08-13 18:59:00,
2013-08-13 15:00:00,72.5,64.1,29.83,WNW,300,0.0,2.8,75,-99.99,,,-99.99,VWS V14.01,2013-08-13 19:00:00,
2013-08-13 15:01:00,72.5,64.7,29.83,WNW,290,0.0,6.3,76,-99.99,,,-99.99,VWS V14.01,2013-08-13 19:01:00,
2013-08-13 15:02:00,72.5,64.7,29.83,WNW,290,0.0,0.0,76,-99.99,,,-99.99,VWS V14.01,2013-08-13 19:02:00,
2013-08-13 15:03:00,72.5,64.8,29.83,WNW,285,0.0,0.0,77,-99.99,,,-99.99,VWS V14.01,2013-08-13 19:03:00,
2013-08-13 15:04:00,72.5,64.8,29.83,WNW,285,0.0,5.6,77,-99.99,,,-99.99,VWS V14.01,2013-08-13 19:04:00,
2013-08-13 15:05:00,72.5,65.0,29.83,West,263,4.3,4.3,77,-99.99,,,-99.99,VWS V14.01,2013-08-13 19:05:00,
2013-08-13 15:06:00,72.6,65.1,29.83,SW,215,0.0,4.9,77,-99.99,,,-99.99,VWS V14.01,2013-08-13 19:06:00,
2013-08-13 15:07:00,72.4,64.3,29.83,North,7,0.0,5.2,76,-99.99,,,-99.99,VWS V14.01,2013-08-13 19:07:00,
2013-08-13 15:08:00,72.7,65.4,29.83,NW,307,0.0,0.0,78,-99.99,,,-99.99,VWS V14.01,2013-08-13 19:08:00,
2013-08-13 15:09:00,72.6,65.2,29.83,NW,307,0.0,6.3,78,-99.99,,,-99.99,VWS V14.01,2013-08-13 19:09:00,
2013-08-13 15:10:00,72.8,65.5,29.83,NW,307,0.0,0.0,78,-99.99,,,-99.99,VWS V14.01,2013-08-13 19:10:00,
2013-08-13 15:11:00,72.8,65.5,29.83,NNW,339,0.0,5.4,78,-99.99,,,-99.99,VWS V14.01,2013-08-13 19:11:00,
2013-08-13 15:12:00,72.8,65.1,29.83,NW,323,0.0,6.0,77,-99.99,,,-99.99,VWS V14.01,2013-08-13 19:12:00,
2013-08-13 15:13:00,73.0,65.4,29.83,North,352,0.0,0.0,77,-99.99,,,-99.99,VWS V14.01,2013-08-13 19:13:00,
2013-08-13 15:14:00,73.0,65.5,29.83,North,352,0.0,3.5,77,-99.99,,,-99.99,VWS V14.01,2013-08-13 19:14:00,
2013-08-13 15:15:00,73.0,65.1,29.83,North,352,0.0,0.0,76,-99.99,,,-99.99,VWS V14.01,2013-08-13 19:15:00,
2013-08-13 15:16:00,73.1,65.2,29.82,North,352,0.0,0.0,76,-99.99,,,-99.99,VWS V14.01,2013-08-13 19:16:00,
2013-08-13 15:17:00,73.1,65.4,29.82,NNW,338,5.0,5.0,77,-99.99,,,-99.99,VWS V14.01,2013-08-13 19:17:00,
2013-08-13 15:18:00,73.2,64.7,29.82,NW,323,0.0,0.0,75,-99.99,,,-99.99,VWS V14.01,2013-08-13 19:18:00,
2013-08-13 15:19:00,73.1,64.6,29.82,NW,323,0.0,0.0,75,-99.99,,,-99.99,VWS V14.01,2013-08-13 19:19:00,
2013-08-13 15:20:00,73.2,64.3,29.82,NW,323,0.0,0.0,74,-99.99,,,-99.99,VWS V14.01,2013-08-13 19:20:00,
2013-08-13 15:21:00,73.2,64.4,29.82,NW,309,4.7,6.1,74,-99.99,,,-99.99,VWS V14.01,2013-08-13 19:21:00,
2013-08-13 15:22:00,73.3,64.2,29.82,West,277,0.0,4.7,73,-99.99,,,-99.99,VWS V14.01,2013-08-13 19:22:00,
2013-08-13 15:23:00,73.3,65.1,29.82,West,273,3.0,5.2,76,-99.99,,,-99.99,VWS V14.01,2013-08-13 19:23:00,
2013-08-13 15:24:00,73.3,64.6,29.83,NNW,329,0.0,3.3,74,-99.99,,,-99.99,VWS V14.01,2013-08-13 19:24:00,
2013-08-13 15:25:00,73.4,65.2,29.82,West,273,0.0,5.2,76,-99.99,,,-99.99,VWS V14.01,2013-08-13 19:25:00,
2013-08-13 15:26:00,73.5,65.0,29.83,NNW,338,8.5,9.7,75,-99.99,,,-99.99,VWS V14.01,2013-08-13 19:26:00,
2013-08-13 15:27:00,73.5,64.7,29.83,WNW,285,0.0,8.5,74,-99.99,,,-99.99,VWS V14.01,2013-08-13 19:27:00,
2013-08-13 15:28:00,73.7,63.7,29.83,WNW,287,8.0,9.2,71,-99.99,,,-99.99,VWS V14.01,2013-08-13 19:28:00,
2013-08-13 15:29:00,73.7,63.9,29.83,NW,315,4.3,4.3,71,-99.99,,,-99.99,VWS V14.01,2013-08-13 19:29:00,
2013-08-13 15:30:00,73.7,63.7,29.83,West,280,6.8,9.2,71,-99.99,,,-99.99,VWS V14.01,2013-08-13 19:30:00,
2013-08-13 15:31:00,73.7,63.6,29.83,NW,318,4.7,11.9,71,-99.99,,,-99.99,VWS V14.01,2013-08-13 19:31:00,
2013-08-13 15:32:00,73.7,63.2,29.83,WNW,288,6.3,8.9,70,-99.99,,,-99.99,VWS V14.01,2013-08-13 19:32:00,
2013-08-13 15:33:00,73.6,62.8,29.83,NW,308,7.5,9.3,69,-99.99,,,-99.99,VWS V14.01,2013-08-13 19:33:00,
2013-08-13 15:34:00,73.6,63.0,29.83,WNW,298,2.6,9.7,69,-99.99,,,-99.99,VWS V14.01,2013-08-13 19:34:00,
2013-08-13 15:35:00,73.5,62.7,29.83,WSW,255,4.3,10.4,69,-99.99,,,-99.99,VWS V14.01,2013-08-13 19:35:00,
2013-08-13 15:36:00,73.4,62.8,29.83,North,357,3.4,5.8,69,-99.99,,,-99.99,VWS V14.01,2013-08-13 19:36:00,
2013-08-13 15:37:00,73.4,63.0,29.83,WSW,255,3.3,8.0,70,-99.99,,,-99.99,VWS V14.01,2013-08-13 19:37:00,
2013-08-13 15:38:00,73.4,63.3,29.83,WSW,249,4.7,7.9,71,-99.99,,,-99.99,VWS V14.01,2013-08-13 19:38:00,
2013-08-13 15:39:00,73.4,63.4,29.83,WNW,297,5.6,9.8,71,-99.99,,,-99.99,VWS V14.01,2013-08-13 19:39:00,
2013-08-13 15:40:00,73.4,63.4,29.83,WNW,294,3.5,7.9,71,-99.99,,,-99.99,VWS V14.01,2013-08-13 19:40:00,
2013-08-13 15:41:00,73.6,63.8,29.82,NW,305,6.0,7.5,71,-99.99,,,-99.99,VWS V14.01,2013-08-13 19:41:00,
2013-08-13 15:42:00,73.4,63.6,29.83,SW,233,6.5,8.6,71,-99.99,,,-99.99,VWS V14.01,2013-08-13 19:42:00,
2013-08-13 15:43:00,73.4,63.2,29.82,NW,321,4.3,11.7,70,-99.99,,,-99.99,VWS V14.01,2013-08-13 19:43:00,
2013-08-13 15:44:00,73.4,63.1,29.82,West,277,8.3,8.3,70,-99.99,,,-99.99,VWS V14.01,2013-08-13 19:44:00,
2013-08-13 15:45:00,73.4,63.2,29.82,NNW,335,7.8,11.7,70,-99.99,,,-99.99,VWS V14.01,2013-08-13 19:45:00,
2013-08-13 15:46:00,73.3,63.1,29.83,NW,305,4.2,7.8,70,-99.99,,,-99.99,VWS V14.01,2013-08-13 19:46:00,
2013-08-13 15:47:00,73.3,63.2,29.83,WSW,253,3.4,9.4,71,-99.99,,,-99.99,VWS V14.01,2013-08-13 19:47:00,
2013-08-13 15:48:00,73.2,62.5,29.82,WNW,291,4.7,5.0,69,-99.99,,,-99.99,VWS V14.01,2013-08-13 19:48:00,
2013-08-13 15:49:00,73.3,62.8,29.82,WNW,288,3.4,9.3,70,-99.99,,,-99.99,VWS V14.01,2013-08-13 19:49:00,
2013-08-13 15:50:00,73.3,62.7,29.82,NW,321,4.3,5.0,69,-99.99,,,-99.99,VWS V14.01,2013-08-13 19:50:00,
2013-08-13 15:51:00,73.2,62.9,29.82,WSW,257,0.0,9.9,70,-99.99,,,-99.99,VWS V14.01,2013-08-13 19:51:00,
2013-08-13 15:52:00,73.3,62.9,29.82,WNW,284,0.0,9.3,70,-99.99,,,-99.99,VWS V14.01,2013-08-13 19:52:00,
2013-08-13 15:53:00,73.2,62.5,29.82,NW,305,10.1,12.4,69,-99.99,,,-99.99,VWS V14.01,2013-08-13 19:53:00,
2013-08-13 15:54:00,73.2,62.8,29.82,WNW,292,9.9,13.7,70,-99.99,,,-99.99,VWS V14.01,2013-08-13 19:54:00,
2013-08-13 15:55:00,73.2,62.5,29.82,NW,326,7.1,12.4,69,-99.99,,,-99.99,VWS V14.01,2013-08-13 19:55:00,
2013-08-13 15:56:00,73.1,62.5,29.82,West,259,4.4,13.3,70,-99.99,,,-99.99,VWS V14.01,2013-08-13 19:56:00,
2013-08-13 15:57:00,73.1,62.5,29.82,NNE,20,9.9,12.2,69,-99.99,,,-99.99,VWS V14.01,2013-08-13 19:57:00,
2013-08-13 15:58:00,72.8,62.1,29.83,North,357,6.2,8.6,69,-99.99,,,-99.99,VWS V14.01,2013-08-13 19:58:00,
2013-08-13 15:59:00,72.9,62.3,29.83,NW,308,6.2,12.9,69,-99.99,,,-99.99,VWS V14.01,2013-08-13 19:59:00,
2013-08-13 16:00:00,72.9,62.1,29.83,West,281,7.8,12.4,69,-99.99,,,-99.99,VWS V14.01,2013-08-13 20:00:00,
2013-08-13 16:01:00,72.9,61.9,29.82,NNW,330,7.2,14.3,68,-99.99,,,-99.99,VWS V14.01,2013-08-13 20:01:00,
2013-08-13 16:02:00,72.8,62.0,29.83,North,357,9.4,11.4,69,-99.99,,,-99.99,VWS V14.01,2013-08-13 20:02:00,
2013-08-13 16:03:00,72.9,62.2,29.83,WSW,253,8.6,11.0,69,-99.99,,,-99.99,VWS V14.01,2013-08-13 20:03:00,
2013-08-13 16:04:00,72.9,62.3,29.83,NW,314,6.5,10.4,69,-99.99,,,-99.99,VWS V14.01,2013-08-13 20:04:00,
2013-08-13 16:05:00,72.8,61.8,29.83,NW,316,8.6,11.0,68,-99.99,,,-99.99,VWS V14.01,2013-08-13 20:05:00,
2013-08-13 16:06:00,72.8,61.4,29.83,West,260,4.5,15.0,67,-99.99,,,-99.99,VWS V14.01,2013-08-13 20:06:00,
2013-08-13 16:07:00,72.9,61.7,29.83,West,273,14.9,14.9,68,-99.99,,,-99.99,VWS V14.01,2013-08-13 20:07:00,
2013-08-13 16:08:00,73.0,61.3,29.83,WNW,292,9.3,13.6,67,-99.99,,,-99.99,VWS V14.01,2013-08-13 20:08:00,
2013-08-13 16:09:00,72.9,61.1,29.83,NW,312,7.1,11.2,66,-99.99,,,-99.99,VWS V14.01,2013-08-13 20:09:00,
2013-08-13 16:10:00,72.8,61.1,29.83,NW,312,6.6,13.6,67,-99.99,,,-99.99,VWS V14.01,2013-08-13 20:10:00,
2013-08-13 16:11:00,73.0,61.4,29.83,WSW,246,7.4,12.7,67,-99.99,,,-99.99,VWS V14.01,2013-08-13 20:11:00,
2013-08-13 16:12:00,73.0,61.5,29.83,WNW,294,5.4,9.9,67,-99.99,,,-99.99,VWS V14.01,2013-08-13 20:12:00,
2013-08-13 16:13:00,72.9,60.5,29.82,NW,326,10.0,11.6,65,-99.99,,,-99.99,VWS V14.01,2013-08-13 20:13:00,
2013-08-13 16:14:00,73.0,60.6,29.82,WNW,291,0.0,11.9,65,-99.99,,,-99.99,VWS V14.01,2013-08-13 20:14:00,
2013-08-13 16:15:00,73.0,60.8,29.83,NW,323,8.9,11.7,66,-99.99,,,-99.99,VWS V14.01,2013-08-13 20:15:00,
2013-08-13 16:16:00,73.0,60.2,29.83,West,281,5.4,12.9,64,-99.99,,,-99.99,VWS V14.01,2013-08-13 20:16:00,
2013-08-13 16:17:00,73.0,60.3,29.82,SW,219,5.0,8.8,64,-99.99,,,-99.99,VWS V14.01,2013-08-13 20:17:00,
2013-08-13 16:18:00,73.1,60.5,29.82,NW,312,4.7,8.4,65,-99.99,,,-99.99,VWS V14.01,2013-08-13 20:18:00,
2013-08-13 16:19:00,73.1,60.5,29.82,West,264,8.4,10.6,65,-99.99,,,-99.99,VWS V14.01,2013-08-13 20:19:00,
2013-08-13 16:20:00,73.1,60.5,29.82,NW,312,0.0,8.4,65,-99.99,,,-99.99,VWS V14.01,2013-08-13 20:20:00,
2013-08-13 16:21:00,73.2,60.5,29.82,WNW,297,6.3,12.1,64,-99.99,,,-99.99,VWS V14.01,2013-08-13 20:21:00,
2013-08-13 16:22:00,73.1,60.4,29.82,West,270,5.5,10.9,64,-99.99,,,-99.99,VWS V14.01,2013-08-13 20:22:00,
2013-08-13 16:23:00,73.3,60.8,29.83,WNW,287,4.9,9.9,65,-99.99,,,-99.99,VWS V14.01,2013-08-13 20:23:00,
2013-08-13 16:24:00,73.3,60.8,29.83,West,267,6.3,12.1,65,-99.99,,,-99.99,VWS V14.01,2013-08-13 20:24:00,
2013-08-13 16:25:00,73.3,60.8,29.83,NW,307,6.7,9.9,65,-99.99,,,-99.99,VWS V14.01,2013-08-13 20:25:00,
2013-08-13 16:26:00,73.4,61.0,29.83,NW,318,9.9,12.6,65,-99.99,,,-99.99,VWS V14.01,2013-08-13 20:26:00,
2013-08-13 16:27:00,73.3,60.6,29.83,NW,326,4.9,14.1,64,-99.99,,,-99.99,VWS V14.01,2013-08-13 20:27:00,
2013-08-13 16:31:00,73.4,60.8,29.83,NW,314,6.6,6.6,65,-99.99,,,-99.99,VWS V14.01,2013-08-13 20:31:00,
2013-08-13 16:32:00,73.4,60.8,29.83,NW,314,6.6,6.6,65,-99.99,,,-99.99,VWS V14.01,2013-08-13 20:32:00,
2013-08-13 16:33:00,73.4,60.7,29.83,NW,319,5.8,12.1,64,-99.99,,,-99.99,VWS V14.01,2013-08-13 20:33:00,
2013-08-13 16:34:00,73.4,60.8,29.83,NW,316,0.0,8.2,65,-99.99,,,-99.99,VWS V14.01,2013-08-13 20:34:00,
2013-08-13 16:35:00,73.6,61.0,29.83,North,349,8.6,8.6,65,-99.99,,,-99.99,VWS V14.01,2013-08-13 20:35:00,
2013-08-13 16:36:00,73.4,60.6,29.83,WNW,295,0.0,8.0,64,-99.99,,,-99.99,VWS V14.01,2013-08-13 20:36:00,
2013-08-13 16:37:00,73.4,60.4,29.83,WNW,301,8.0,12.8,64,-99.99,,,-99.99,VWS V14.01,2013-08-13 20:37:00,
2013-08-13 16:54:00,73.8,61.0,29.83,WNW,302,4.5,4.5,64,-99.99,,,-99.99,VWS V14.01,2013-08-13 20:54:00,
2013-08-13 16:55:00,73.8,61.0,29.83,WNW,302,4.5,4.5,64,-99.99,,,-99.99,VWS V14.01,2013-08-13 20:55:00,
2013-08-13 16:56:00,73.8,61.0,29.83,NW,318,6.1,8.8,64,-99.99,,,-99.99,VWS V14.01,2013-08-13 20:56:00,
2013-08-13 16:57:00,74.0,61.1,29.83,WNW,284,0.0,6.6,64,-99.99,,,-99.99,VWS V14.01,2013-08-13 20:57:00,
2013-08-13 16:58:00,73.8,61.0,29.83,NNW,336,3.2,5.7,64,-99.99,,,-99.99,VWS V14.01,2013-08-13 20:58:00,
2013-08-13 16:59:00,73.9,61.1,29.83,West,273,4.9,9.1,64,-99.99,,,-99.99,VWS V14.01,2013-08-13 20:59:00,
2013-08-13 17:00:00,73.8,61.0,29.83,NW,305,5.7,5.7,64,-99.99,,,-99.99,VWS V14.01,2013-08-13 21:00:00,
2013-08-13 17:01:00,73.9,61.0,29.83,WNW,283,3.5,9.1,64,-99.99,,,-99.99,VWS V14.01,2013-08-13 21:01:00,
2013-08-13 17:02:00,73.8,60.9,29.83,SW,228,0.0,8.3,64,-99.99,,,-99.99,VWS V14.01,2013-08-13 21:02:00,
2013-08-13 17:03:00,73.8,60.8,29.82,WNW,288,6.0,7.1,64,-99.99,,,-99.99,VWS V14.01,2013-08-13 21:03:00,
2013-08-13 17:04:00,73.5,60.5,29.83,West,278,7.1,9.1,64,-99.99,,,-99.99,VWS V14.01,2013-08-13 21:04:00,
2013-08-13 17:05:00,73.6,60.6,29.83,West,266,7.8,11.1,64,-99.99,,,-99.99,VWS V14.01,2013-08-13 21:05:00,
2013-08-13 17:06:00,73.5,60.3,29.83,NNW,335,0.0,9.1,63,-99.99,,,-99.99,VWS V14.01,2013-08-13 21:06:00,
2013-08-13 17:07:00,73.5,60.2,29.83,North,350,7.0,7.0,63,-99.99,,,-99.99,VWS V14.01,2013-08-13 21:07:00,
2013-08-13 17:08:00,73.4,60.4,29.83,West,264,5.6,9.4,64,-99.99,,,-99.99,VWS V14.01,2013-08-13 21:08:00,
2013-08-13 17:30:00,72.9,60.5,29.83,NW,314,0.0,9.4,65,-99.99,,,-99.99,VWS V14.01,2013-08-13 21:30:00,
2013-08-13 17:31:00,72.9,60.5,29.83,NW,314,0.0,9.4,65,-99.99,,,-99.99,VWS V14.01,2013-08-13 21:31:00,
2013-08-13 17:32:00,72.9,60.6,29.83,NW,312,4.6,5.9,65,-99.99,,,-99.99,VWS V14.01,2013-08-13 21:32:00,
2013-08-13 17:33:00,72.8,60.2,29.83,North,3,5.5,8.4,65,-99.99,,,-99.99,VWS V14.01,2013-08-13 21:33:00,
2013-08-13 17:34:00,72.9,60.2,29.83,NNE,13,3.3,5.7,64,-99.99,,,-99.99,VWS V14.01,2013-08-13 21:34:00,
2013-08-13 17:35:00,72.7,60.1,29.83,NW,311,4.9,4.9,65,-99.99,,,-99.99,VWS V14.01,2013-08-13 21:35:00,
2013-08-13 17:36:00,72.7,60.1,29.83,North,8,0.0,5.0,65,-99.99,,,-99.99,VWS V14.01,2013-08-13 21:36:00,
2013-08-13 17:37:00,72.7,60.4,29.83,West,260,7.2,11.2,65,-99.99,,,-99.99,VWS V14.01,2013-08-13 21:37:00,
2013-08-13 17:38:00,72.6,60.0,29.83,NW,312,4.7,7.8,65,-99.99,,,-99.99,VWS V14.01,2013-08-13 21:38:00,
2013-08-13 17:39:00,72.7,60.2,29.83,North,359,8.0,10.4,65,-99.99,,,-99.99,VWS V14.01,2013-08-13 21:39:00,
2013-08-13 17:40:00,72.6,59.7,29.83,NW,307,7.5,8.2,64,-99.99,,,-99.99,VWS V14.01,2013-08-13 21:40:00,
2013-08-13 17:41:00,72.6,59.7,29.83,NW,307,7.5,8.2,64,-99.99,,,-99.99,VWS V14.01,2013-08-13 21:41:00,
2013-08-13 17:42:00,72.5,59.7,29.83,NW,305,0.0,7.7,64,-99.99,,,-99.99,VWS V14.01,2013-08-13 21:42:00,
2013-08-13 17:43:00,72.5,59.6,29.83,West,281,0.0,7.4,64,-99.99,,,-99.99,VWS V14.01,2013-08-13 21:43:00,
2013-08-13 17:44:00,72.3,59.5,29.83,West,280,5.8,7.7,64,-99.99,,,-99.99,VWS V14.01,2013-08-13 21:44:00,
2013-08-13 17:45:00,72.3,59.6,29.83,NW,325,6.1,6.5,64,-99.99,,,-99.99,VWS V14.01,2013-08-13 21:45:00,
2013-08-13 17:46:00,72.3,59.6,29.83,NW,311,5.6,7.1,64,-99.99,,,-99.99,VWS V14.01,2013-08-13 21:46:00,
2013-08-13 17:47:00,72.3,59.8,29.83,West,262,1.2,6.5,65,-99.99,,,-99.99,VWS V14.01,2013-08-13 21:47:00,
2013-08-13 17:48:00,72.3,59.6,29.83,West,262,0.0,1.2,64,-99.99,,,-99.99,VWS V14.01,2013-08-13 21:48:00,
2013-08-13 17:49:00,72.2,59.7,29.83,West,262,0.0,3.5,65,-99.99,,,-99.99,VWS V14.01,2013-08-13 21:49:00,
2013-08-13 17:50:00,72.3,59.9,29.83,WSW,238,6.0,8.3,65,-99.99,,,-99.99,VWS V14.01,2013-08-13 21:50:00,
2013-08-13 17:51:00,72.3,59.9,29.83,WSW,238,8.3,9.4,65,-99.99,,,-99.99,VWS V14.01,2013-08-13 21:51:00,
2013-08-13 17:52:00,72.3,59.9,29.83,West,263,0.0,8.3,65,-99.99,,,-99.99,VWS V14.01,2013-08-13 21:52:00,
2013-08-13 17:53:00,72.3,59.9,29.83,WNW,294,3.2,8.8,65,-99.99,,,-99.99,VWS V14.01,2013-08-13 21:53:00,
2013-08-13 17:54:00,72.2,59.8,29.83,NW,315,3.2,7.5,65,-99.99,,,-99.99,VWS V14.01,2013-08-13 21:54:00,
2013-08-13 17:55:00,72.3,59.8,29.83,WNW,291,0.0,6.2,65,-99.99,,,-99.99,VWS V14.01,2013-08-13 21:55:00,
2013-08-13 17:56:00,72.3,59.8,29.83,WNW,291,0.0,6.2,65,-99.99,,,-99.99,VWS V14.01,2013-08-13 21:56:00,
2013-08-13 17:57:00,72.2,59.8,29.83,WNW,295,3.3,6.3,65,-99.99,,,-99.99,VWS V14.01,2013-08-13 21:57:00,
2013-08-13 17:58:00,72.2,59.9,29.83,WSW,248,2.9,4.2,65,-99.99,,,-99.99,VWS V14.01,2013-08-13 21:58:00,
2013-08-13 17:59:00,72.2,59.8,29.83,NW,319,3.3,3.3,65,-99.99,,,-99.99,VWS V14.01,2013-08-13 21:59:00,
2013-08-13 18:00:00,72.1,60.0,29.83,NW,307,0.0,0.0,66,-99.99,,,-99.99,VWS V14.01,2013-08-13 22:00:00,
2013-08-13 18:01:00,72.1,60.0,29.83,NW,307,0.0,8.3,66,-99.99,,,-99.99,VWS V14.01,2013-08-13 22:01:00,
2013-08-13 18:02:00,72.0,59.7,29.83,NW,316,8.0,8.6,65,-99.99,,,-99.99,VWS V14.01,2013-08-13 22:02:00,
2013-08-13 18:03:00,71.9,59.7,29.83,NW,325,5.3,8.8,66,-99.99,,,-99.99,VWS V14.01,2013-08-13 22:03:00,
2013-08-13 18:04:00,71.8,59.7,29.83,WNW,297,0.0,6.9,66,-99.99,,,-99.99,VWS V14.01,2013-08-13 22:04:00,
2013-08-13 18:05:00,71.8,60.0,29.83,WSW,240,2.5,5.2,66,-99.99,,,-99.99,VWS V14.01,2013-08-13 22:05:00,
2013-08-13 18:06:00,71.8,60.0,29.83,WSW,240,2.5,5.2,66,-99.99,,,-99.99,VWS V14.01,2013-08-13 22:06:00,
2013-08-13 18:07:00,71.8,60.1,29.83,NNW,343,5.5,6.8,67,-99.99,,,-99.99,VWS V14.01,2013-08-13 22:07:00,
2013-08-13 18:08:00,71.8,60.2,29.83,NNW,343,0.0,5.5,67,-99.99,,,-99.99,VWS V14.01,2013-08-13 22:08:00,
2013-08-13 18:09:00,71.7,60.1,29.83,NNW,343,2.2,2.2,67,-99.99,,,-99.99,VWS V14.01,2013-08-13 22:09:00,
2013-08-13 18:10:00,71.7,60.2,29.83,WNW,302,0.0,0.0,67,-99.99,,,-99.99,VWS V14.01,2013-08-13 22:10:00,
2013-08-13 18:11:00,71.7,60.2,29.83,WNW,302,0.0,0.0,67,-99.99,,,-99.99,VWS V14.01,2013-08-13 22:11:00,
2013-08-13 18:12:00,71.7,60.2,29.83,NW,308,5.5,7.8,67,-99.99,,,-99.99,VWS V14.01,2013-08-13 22:12:00,
2013-08-13 18:13:00,71.8,60.3,29.83,WNW,301,0.0,5.5,67,-99.99,,,-99.99,VWS V14.01,2013-08-13 22:13:00,
2013-08-13 18:14:00,71.7,60.3,29.83,WNW,301,0.0,5.5,67,-99.99,,,-99.99,VWS V14.01,2013-08-13 22:14:00,
2013-08-13 18:15:00,71.7,60.2,29.83,WNW,301,0.0,0.0,67,-99.99,,,-99.99,VWS V14.01,2013-08-13 22:15:00,
2013-08-13 18:16:00,71.7,60.2,29.83,WNW,301,0.0,0.0,67,-99.99,,,-99.99,VWS V14.01,2013-08-13 22:16:00,
2013-08-13 18:17:00,71.8,60.3,29.83,WNW,301,0.0,0.0,67,-99.99,,,-99.99,VWS V14.01,2013-08-13 22:17:00,
2013-08-13 18:18:00,71.7,60.2,29.83,WNW,301,0.0,0.0,67,-99.99,,,-99.99,VWS V14.01,2013-08-13 22:18:00,
2013-08-13 18:19:00,71.7,60.2,29.83,West,273,0.0,4.8,67,-99.99,,,-99.99,VWS V14.01,2013-08-13 22:19:00,
2013-08-13 18:20:00,71.8,60.3,29.83,NNW,329,7.0,7.0,67,-99.99,,,-99.99,VWS V14.01,2013-08-13 22:20:00,
2013-08-13 18:21:00,71.8,60.3,29.83,NNW,329,6.3,7.0,67,-99.99,,,-99.99,VWS V14.01,2013-08-13 22:21:00,
2013-08-13 18:22:00,71.7,60.1,29.83,NW,305,4.2,8.0,67,-99.99,,,-99.99,VWS V14.01,2013-08-13 22:22:00,
2013-08-13 18:23:00,71.7,60.0,29.83,NW,305,0.0,4.2,67,-99.99,,,-99.99,VWS V14.01,2013-08-13 22:23:00,
2013-08-13 18:24:00,71.7,60.0,29.83,NW,305,0.0,4.2,66,-99.99,,,-99.99,VWS V14.01,2013-08-13 22:24:00,
2013-08-13 18:25:00,71.7,60.1,29.83,NW,318,4.2,7.3,67,-99.99,,,-99.99,VWS V14.01,2013-08-13 22:25:00,
2013-08-13 18:26:00,71.7,60.1,29.83,NW,318,3.0,7.3,67,-99.99,,,-99.99,VWS V14.01,2013-08-13 22:26:00,
2013-08-13 18:27:00,71.7,59.8,29.83,WNW,300,5.2,9.5,66,-99.99,,,-99.99,VWS V14.01,2013-08-13 22:27:00,
2013-08-13 18:28:00,71.6,59.9,29.83,WNW,300,0.0,8.6,66,-99.99,,,-99.99,VWS V14.01,2013-08-13 22:28:00,
2013-08-13 18:29:00,71.6,59.9,29.83,WNW,285,0.0,7.3,66,-99.99,,,-99.99,VWS V14.01,2013-08-13 22:29:00,
2013-08-13 18:30:00,71.3,59.4,29.83,WSW,243,0.0,9.9,66,-99.99,,,-99.99,VWS V14.01,2013-08-13 22:30:00,
2013-08-13 18:31:00,71.3,59.4,29.83,WSW,243,0.0,9.9,66,-99.99,,,-99.99,VWS V14.01,2013-08-13 22:31:00,
2013-08-13 18:32:00,71.3,59.5,29.83,West,273,4.7,10.3,66,-99.99,,,-99.99,VWS V14.01,2013-08-13 22:32:00,
2013-08-13 18:33:00,71.2,59.4,29.83,NW,305,5.7,9.3,66,-99.99,,,-99.99,VWS V14.01,2013-08-13 22:33:00,
2013-08-13 18:34:00,71.2,59.3,29.83,NW,318,0.0,7.1,66,-99.99,,,-99.99,VWS V14.01,2013-08-13 22:34:00,
2013-08-13 18:35:00,71.1,59.5,29.83,NW,309,0.0,5.2,67,-99.99,,,-99.99,VWS V14.01,2013-08-13 22:35:00,
2013-08-13 18:36:00,71.1,59.5,29.83,NW,309,0.0,5.2,67,-99.99,,,-99.99,VWS V14.01,2013-08-13 22:36:00,
2013-08-13 18:37:00,71.1,59.4,29.83,NW,309,7.2,9.6,67,-99.99,,,-99.99,VWS V14.01,2013-08-13 22:37:00,
2013-08-13 18:38:00,70.9,59.1,29.83,WSW,245,5.3,9.9,66,-99.99,,,-99.99,VWS V14.01,2013-08-13 22:38:00,
2013-08-13 18:39:00,70.8,58.9,29.83,NW,325,2.9,7.3,66,-99.99,,,-99.99,VWS V14.01,2013-08-13 22:39:00,
2013-08-13 18:40:00,70.7,59.0,29.83,NW,309,4.7,5.0,66,-99.99,,,-99.99,VWS V14.01,2013-08-13 22:40:00,
2013-08-13 18:41:00,70.7,58.9,29.83,NNW,340,3.5,5.0,66,-99.99,,,-99.99,VWS V14.01,2013-08-13 22:41:00,
2013-08-13 18:42:00,70.7,59.1,29.83,SW,222,4.4,11.2,67,-99.99,,,-99.99,VWS V14.01,2013-08-13 22:42:00,
2013-08-13 18:43:00,70.6,59.0,29.83,West,276,8.3,10.2,67,-99.99,,,-99.99,VWS V14.01,2013-08-13 22:43:00,
2013-08-13 18:44:00,70.6,59.1,29.83,WNW,285,5.3,12.0,67,-99.99,,,-99.99,VWS V14.01,2013-08-13 22:44:00,
2013-08-13 18:45:00,70.4,59.1,29.83,WSW,240,0.0,0.0,67,-99.99,,,-99.99,VWS V14.01,2013-08-13 22:45:00,
2013-08-13 18:46:00,70.4,59.1,29.83,WSW,240,0.0,0.0,67,-99.99,,,-99.99,VWS V14.01,2013-08-13 22:46:00,
2013-08-13 18:47:00,70.4,58.9,29.83,NW,316,0.0,4.8,67,-99.99,,,-99.99,VWS V14.01,2013-08-13 22:47:00,
2013-08-13 18:48:00,70.3,58.9,29.83,NW,315,0.0,4.8,67,-99.99,,,-99.99,VWS V14.01,2013-08-13 22:48:00,
2013-08-13 18:49:00,70.3,58.8,29.83,NW,315,0.0,0.0,67,-99.99,,,-99.99,VWS V14.01,2013-08-13 22:49:00,
2013-08-13 18:50:00,70.3,59.0,29.83,WNW,288,0.0,8.8,67,-99.99,,,-99.99,VWS V14.01,2013-08-13 22:50:00,
2013-08-13 18:51:00,70.3,59.0,29.83,WNW,288,0.0,8.8,67,-99.99,,,-99.99,VWS V14.01,2013-08-13 22:51:00,
2013-08-13 18:52:00,70.3,58.9,29.83,West,281,6.4,9.0,67,-99.99,,,-99.99,VWS V14.01,2013-08-13 22:52:00,
2013-08-13 18:53:00,70.2,58.9,29.83,NNW,336,4.7,7.3,67,-99.99,,,-99.99,VWS V14.01,2013-08-13 22:53:00,
2013-08-13 18:54:00,70.2,58.8,29.83,NW,326,7.8,9.9,67,-99.99,,,-99.99,VWS V14.01,2013-08-13 22:54:00,
2013-08-13 18:55:00,70.0,58.5,29.83,NW,305,7.4,11.0,67,-99.99,,,-99.99,VWS V14.01,2013-08-13 22:55:00,
2013-08-13 18:56:00,70.0,58.5,29.83,NNW,329,7.4,11.0,67,-99.99,,,-99.99,VWS V14.01,2013-08-13 22:56:00,
2013-08-13 18:57:00,69.9,58.5,29.83,WNW,285,0.0,8.9,67,-99.99,,,-99.99,VWS V14.01,2013-08-13 22:57:00,
2013-08-13 18:58:00,69.9,58.3,29.83,WNW,301,8.3,10.5,67,-99.99,,,-99.99,VWS V14.01,2013-08-13 22:58:00,
2013-08-13 18:59:00,69.9,58.4,29.83,WNW,295,9.1,9.8,67,-99.99,,,-99.99,VWS V14.01,2013-08-13 22:59:00,
2013-08-13 19:00:00,69.7,58.1,29.84,NW,326,9.1,9.8,66,-99.99,,,-99.99,VWS V14.01,2013-08-13 23:00:00,
2013-08-13 19:01:00,69.7,58.1,29.84,NW,323,5.6,9.8,66,-99.99,,,-99.99,VWS V14.01,2013-08-13 23:01:00,
2013-08-13 19:02:00,69.7,58.1,29.84,West,277,6.8,10.4,66,-99.99,,,-99.99,VWS V14.01,2013-08-13 23:02:00,
2013-08-13 19:03:00,69.7,58.1,29.84,NNW,335,0.0,6.8,67,-99.99,,,-99.99,VWS V14.01,2013-08-13 23:03:00,
2013-08-13 19:04:00,69.6,58.0,29.84,North,10,4.8,6.6,67,-99.99,,,-99.99,VWS V14.01,2013-08-13 23:04:00,
2013-08-13 19:05:00,69.6,58.0,29.84,North,354,2.2,7.1,67,-99.99,,,-99.99,VWS V14.01,2013-08-13 23:05:00,
2013-08-13 19:06:00,69.6,58.1,29.84,North,354,0.0,7.1,67,-99.99,,,-99.99,VWS V14.01,2013-08-13 23:06:00,
2013-08-13 19:07:00,69.5,58.0,29.84,West,276,5.5,9.9,67,-99.99,,,-99.99,VWS V14.01,2013-08-13 23:07:00,
2013-08-13 19:08:00,69.5,58.0,29.84,North,7,4.5,6.0,67,-99.99,,,-99.99,VWS V14.01,2013-08-13 23:08:00,
2013-08-13 19:09:00,69.5,58.0,29.84,North,359,0.0,7.3,67,-99.99,,,-99.99,VWS V14.01,2013-08-13 23:09:00,
2013-08-13 19:10:00,69.4,57.6,29.84,WNW,283,0.0,5.9,66,-99.99,,,-99.99,VWS V14.01,2013-08-13 23:10:00,
2013-08-13 19:11:00,69.5,57.7,29.84,SW,214,4.5,5.9,66,-99.99,,,-99.99,VWS V14.01,2013-08-13 23:11:00,
2013-08-13 19:12:00,69.4,57.4,29.84,NNW,329,3.5,11.0,66,-99.99,,,-99.99,VWS V14.01,2013-08-13 23:12:00,
2013-08-13 19:13:00,69.4,57.6,29.84,WSW,253,7.0,8.8,66,-99.99,,,-99.99,VWS V14.01,2013-08-13 23:13:00,
2013-08-13 19:14:00,69.3,57.6,29.84,NNW,335,1.1,7.0,66,-99.99,,,-99.99,VWS V14.01,2013-08-13 23:14:00,
2013-08-13 19:15:00,69.2,57.6,29.84,WNW,300,0.0,5.2,67,-99.99,,,-99.99,VWS V14.01,2013-08-13 23:15:00,
2013-08-13 19:16:00,69.2,57.6,29.84,NW,318,8.3,9.1,67,-99.99,,,-99.99,VWS V14.01,2013-08-13 23:16:00,
2013-08-13 19:17:00,69.1,57.5,29.85,NNW,346,4.4,8.3,66,-99.99,,,-99.99,VWS V14.01,2013-08-13 23:17:00,
2013-08-13 19:18:00,69.1,57.5,29.85,West,263,5.2,7.9,67,-99.99,,,-99.99,VWS V14.01,2013-08-13 23:18:00,
2013-08-13 19:19:00,69.1,57.4,29.85,SW,236,3.4,8.0,66,-99.99,,,-99.99,VWS V14.01,2013-08-13 23:19:00,
2013-08-13 19:20:00,68.8,57.0,29.85,WNW,300,7.6,9.7,66,-99.99,,,-99.99,VWS V14.01,2013-08-13 23:20:00,
2013-08-13 19:21:00,68.8,57.1,29.85,West,269,7.0,9.7,66,-99.99,,,-99.99,VWS V14.01,2013-08-13 23:21:00,
2013-08-13 19:22:00,68.8,57.1,29.85,NW,322,5.4,11.5,66,-99.99,,,-99.99,VWS V14.01,2013-08-13 23:22:00,
2013-08-13 19:23:00,68.7,56.9,29.86,WSW,253,6.5,9.3,66,-99.99,,,-99.99,VWS V14.01,2013-08-13 23:23:00,
2013-08-13 19:24:00,68.6,56.8,29.85,NNW,330,6.1,12.6,66,-99.99,,,-99.99,VWS V14.01,2013-08-13 23:24:00,
2013-08-13 19:25:00,68.5,56.9,29.85,WNW,302,8.6,13.2,66,-99.99,,,-99.99,VWS V14.01,2013-08-13 23:25:00,
2013-08-13 19:26:00,68.5,56.9,29.85,West,281,4.7,13.2,66,-99.99,,,-99.99,VWS V14.01,2013-08-13 23:26:00,
2013-08-13 19:27:00,68.5,56.8,29.85,NNW,332,0.0,5.6,66,-99.99,,,-99.99,VWS V14.01,2013-08-13 23:27:00,
2013-08-13 19:28:00,68.4,56.9,29.86,NNW,338,5.1,5.1,67,-99.99,,,-99.99,VWS V14.01,2013-08-13 23:28:00,
2013-08-13 19:29:00,68.3,57.0,29.86,SW,228,4.2,7.5,67,-99.99,,,-99.99,VWS V14.01,2013-08-13 23:29:00,
2013-08-13 19:30:00,68.2,56.8,29.85,WNW,287,0.0,7.5,67,-99.99,,,-99.99,VWS V14.01,2013-08-13 23:30:00,
2013-08-13 19:31:00,68.3,56.9,29.85,WNW,287,0.0,7.5,67,-99.99,,,-99.99,VWS V14.01,2013-08-13 23:31:00,
2013-08-13 19:32:00,68.2,56.9,29.86,West,274,3.5,5.0,67,-99.99,,,-99.99,VWS V14.01,2013-08-13 23:32:00,
2013-08-13 19:33:00,68.2,57.0,29.86,NNW,329,6.8,9.8,68,-99.99,,,-99.99,VWS V14.01,2013-08-13 23:33:00,
2013-08-13 19:34:00,68.1,57.0,29.86,West,271,5.8,7.1,68,-99.99,,,-99.99,VWS V14.01,2013-08-13 23:34:00,
2013-08-13 19:35:00,68.1,56.9,29.86,WNW,290,3.0,7.5,67,-99.99,,,-99.99,VWS V14.01,2013-08-13 23:35:00,
2013-08-13 19:36:00,68.2,57.0,29.86,WSW,252,0.0,7.5,67,-99.99,,,-99.99,VWS V14.01,2013-08-13 23:36:00,
2013-08-13 19:37:00,68.1,56.9,29.86,NNW,336,9.0,9.7,67,-99.99,,,-99.99,VWS V14.01,2013-08-13 23:37:00,
2013-08-13 19:38:00,68.2,56.9,29.86,WSW,249,6.8,9.4,67,-99.99,,,-99.99,VWS V14.01,2013-08-13 23:38:00,
2013-08-13 19:39:00,67.9,56.6,29.86,SW,231,0.0,7.3,67,-99.99,,,-99.99,VWS V14.01,2013-08-13 23:39:00,
2013-08-13 19:40:00,68.0,56.9,29.86,West,280,0.0,6.8,68,-99.99,,,-99.99,VWS V14.01,2013-08-13 23:40:00,
2013-08-13 19:41:00,68.1,57.0,29.86,NNW,336,8.1,12.1,68,-99.99,,,-99.99,VWS V14.01,2013-08-13 23:41:00,
2013-08-13 19:42:00,67.9,56.7,29.86,WSW,252,5.2,8.8,67,-99.99,,,-99.99,VWS V14.01,2013-08-13 23:42:00,
2013-08-13 19:43:00,67.8,56.7,29.86,WSW,252,0.0,5.2,68,-99.99,,,-99.99,VWS V14.01,2013-08-13 23:43:00,
2013-08-13 19:44:00,67.9,56.6,29.86,WNW,291,0.0,6.2,67,-99.99,,,-99.99,VWS V14.01,2013-08-13 23:44:00,
2013-08-13 19:45:00,67.8,56.8,29.86,West,277,5.1,8.5,68,-99.99,,,-99.99,VWS V14.01,2013-08-13 23:45:00,
2013-08-13 19:46:00,67.7,56.7,29.86,SW,236,4.4,8.5,68,-99.99,,,-99.99,VWS V14.01,2013-08-13 23:46:00,
2013-08-13 19:47:00,67.7,56.5,29.86,SW,236,0.0,4.4,67,-99.99,,,-99.99,VWS V14.01,2013-08-13 23:47:00,
2013-08-13 19:48:00,67.7,56.7,29.86,NW,315,0.0,8.1,68,-99.99,,,-99.99,VWS V14.01,2013-08-13 23:48:00,
2013-08-13 19:49:00,67.6,56.5,29.86,WNW,302,6.6,8.5,68,-99.99,,,-99.99,VWS V14.01,2013-08-13 23:49:00,
2013-08-13 19:50:00,67.6,56.7,29.86,WNW,283,0.0,3.0,68,-99.99,,,-99.99,VWS V14.01,2013-08-13 23:50:00,
2013-08-13 19:51:00,67.5,56.6,29.86,WNW,283,0.0,3.0,68,-99.99,,,-99.99,VWS V14.01,2013-08-13 23:51:00,
2013-08-13 19:52:00,67.6,56.9,29.86,NNW,330,5.8,8.3,68,-99.99,,,-99.99,VWS V14.01,2013-08-13 23:52:00,
2013-08-13 19:53:00,67.5,56.7,29.86,WNW,302,0.0,8.5,68,-99.99,,,-99.99,VWS V14.01,2013-08-13 23:53:00,
2013-08-13 19:54:00,67.4,56.5,29.86,WNW,302,0.0,2.8,68,-99.99,,,-99.99,VWS V14.01,2013-08-13 23:54:00,
2013-08-13 19:55:00,67.4,56.8,29.87,NNW,333,5.2,5.2,69,-99.99,,,-99.99,VWS V14.01,2013-08-13 23:55:00,
2013-08-13 19:56:00,67.3,56.8,29.86,NNW,342,5.3,6.5,69,-99.99,,,-99.99,VWS V14.01,2013-08-13 23:56:00,
2013-08-13 19:57:00,67.5,57.0,29.86,NW,319,4.2,7.4,69,-99.99,,,-99.99,VWS V14.01,2013-08-13 23:57:00,
2013-08-13 19:58:00,67.3,56.8,29.86,NNW,342,1.1,9.1,69,-99.99,,,-99.99,VWS V14.01,2013-08-13 23:58:00,
2013-08-13 19:59:00,67.3,56.9,29.86,NNW,342,0.0,1.1,69,-99.99,,,-99.99,VWS V14.01,2013-08-13 23:59:00,
2013-08-13 20:00:00,67.2,56.8,29.87,SW,228,5.7,7.5,69,-99.99,,,-99.99,VWS V14.01,2013-08-14 00:00:00,
2013-08-13 20:01:00,67.2,56.8,29.86,SSW,211,2.6,7.5,69,-99.99,,,-99.99,VWS V14.01,2013-08-14 00:01:00,
2013-08-13 20:02:00,67.2,56.8,29.86,SSW,211,0.0,2.6,69,-99.99,,,-99.99,VWS V14.01,2013-08-14 00:02:00,
2013-08-13 20:03:00,67.1,56.8,29.86,SSW,211,0.0,3.1,69,-99.99,,,-99.99,VWS V14.01,2013-08-14 00:03:00,
2013-08-13 20:04:00,67.1,56.8,29.86,West,271,2.7,3.4,69,-99.99,,,-99.99,VWS V14.01,2013-08-14 00:04:00,
2013-08-13 20:05:00,67.1,56.8,29.86,West,271,0.0,0.0,70,-99.99,,,-99.99,VWS V14.01,2013-08-14 00:05:00,
2013-08-13 20:06:00,67.0,56.8,29.86,West,271,0.0,0.0,70,-99.99,,,-99.99,VWS V14.01,2013-08-14 00:06:00,
2013-08-13 20:07:00,67.1,56.9,29.86,West,271,0.0,0.0,70,-99.99,,,-99.99,VWS V14.01,2013-08-14 00:07:00,
2013-08-13 20:08:00,67.0,56.8,29.86,West,277,0.0,5.0,70,-99.99,,,-99.99,VWS V14.01,2013-08-14 00:08:00,
2013-08-13 20:09:00,67.1,57.0,29.86,West,277,0.0,0.0,70,-99.99,,,-99.99,VWS V14.01,2013-08-14 00:09:00,
2013-08-13 20:10:00,67.0,56.8,29.87,West,277,0.0,0.0,70,-99.99,,,-99.99,VWS V14.01,2013-08-14 00:10:00,
2013-08-13 20:11:00,67.0,56.8,29.86,West,277,0.0,0.0,70,-99.99,,,-99.99,VWS V14.01,2013-08-14 00:11:00,
2013-08-13 20:12:00,67.0,56.9,29.87,West,277,0.0,0.0,70,-99.99,,,-99.99,VWS V14.01,2013-08-14 00:12:00,
2013-08-13 20:13:00,66.8,56.7,29.86,West,277,0.0,0.0,70,-99.99,,,-99.99,VWS V14.01,2013-08-14 00:13:00,
2013-08-13 20:14:00,66.8,56.9,29.87,West,277,0.0,0.0,70,-99.99,,,-99.99,VWS V14.01,2013-08-14 00:14:00,
2013-08-13 20:15:00,66.8,56.8,29.87,West,278,0.0,0.0,70,-99.99,,,-99.99,VWS V14.01,2013-08-14 00:15:00,
2013-08-13 20:16:00,66.7,56.7,29.87,West,278,0.0,0.0,70,-99.99,,,-99.99,VWS V14.01,2013-08-14 00:16:00,
2013-08-13 20:17:00,66.8,56.8,29.87,WNW,287,0.0,2.9,70,-99.99,,,-99.99,VWS V14.01,2013-08-14 00:17:00,
2013-08-13 20:18:00,66.7,56.8,29.87,WNW,298,0.0,4.2,70,-99.99,,,-99.99,VWS V14.01,2013-08-14 00:18:00,
2013-08-13 20:19:00,66.7,56.8,29.87,NNW,330,0.0,6.1,71,-99.99,,,-99.99,VWS V14.01,2013-08-14 00:19:00,
2013-08-13 20:20:00,66.5,56.7,29.87,NNW,330,0.0,0.0,71,-99.99,,,-99.99,VWS V14.01,2013-08-14 00:20:00,
2013-08-13 20:21:00,66.5,56.7,29.87,NNW,330,0.0,0.0,71,-99.99,,,-99.99,VWS V14.01,2013-08-14 00:21:00,
2013-08-13 20:22:00,66.6,56.8,29.87,NW,304,4.6,5.5,71,-99.99,,,-99.99,VWS V14.01,2013-08-14 00:22:00,
2013-08-13 20:23:00,66.5,56.7,29.87,NW,322,4.8,9.1,71,-99.99,,,-99.99,VWS V14.01,2013-08-14 00:23:00,
2013-08-13 20:24:00,66.4,56.6,29.87,NW,314,0.0,6.3,71,-99.99,,,-99.99,VWS V14.01,2013-08-14 00:24:00,
2013-08-13 20:25:00,66.4,56.7,29.87,North,359,2.4,5.7,71,-99.99,,,-99.99,VWS V14.01,2013-08-14 00:25:00,
2013-08-13 20:26:00,66.5,56.8,29.87,West,259,5.5,5.7,71,-99.99,,,-99.99,VWS V14.01,2013-08-14 00:26:00,
2013-08-13 20:27:00,66.4,56.5,29.87,WSW,243,3.3,5.5,70,-99.99,,,-99.99,VWS V14.01,2013-08-14 00:27:00,
2013-08-13 20:28:00,66.5,56.6,29.87,NNW,345,5.0,7.6,70,-99.99,,,-99.99,VWS V14.01,2013-08-14 00:28:00,
2013-08-13 20:29:00,66.4,56.5,29.87,WNW,301,0.0,8.9,70,-99.99,,,-99.99,VWS V14.01,2013-08-14 00:29:00,
2013-08-13 20:30:00,66.4,56.6,29.87,West,273,0.0,5.0,71,-99.99,,,-99.99,VWS V14.01,2013-08-14 00:30:00,
2013-08-13 20:31:00,66.3,56.4,29.87,West,273,0.0,5.0,70,-99.99,,,-99.99,VWS V14.01,2013-08-14 00:31:00,
2013-08-13 20:32:00,66.4,56.5,29.87,WSW,238,5.5,9.3,70,-99.99,,,-99.99,VWS V14.01,2013-08-14 00:32:00,
2013-08-13 20:33:00,66.2,56.3,29.87,NW,308,6.6,8.5,70,-99.99,,,-99.99,VWS V14.01,2013-08-14 00:33:00,
2013-08-13 20:34:00,66.2,56.3,29.87,NW,316,0.0,6.7,70,-99.99,,,-99.99,VWS V14.01,2013-08-14 00:34:00,
2013-08-13 20:35:00,66.2,56.4,29.87,NW,318,0.0,5.3,71,-99.99,,,-99.99,VWS V14.01,2013-08-14 00:35:00,
2013-08-13 20:36:00,66.1,56.2,29.87,WNW,287,0.0,6.7,70,-99.99,,,-99.99,VWS V14.01,2013-08-14 00:36:00,
2013-08-13 20:37:00,66.1,56.1,29.87,West,270,5.1,7.0,70,-99.99,,,-99.99,VWS V14.01,2013-08-14 00:37:00,
2013-08-13 20:38:00,66.0,55.8,29.87,NW,311,0.0,8.4,70,-99.99,,,-99.99,VWS V14.01,2013-08-14 00:38:00,
2013-08-13 20:39:00,65.9,56.0,29.87,WNW,287,0.0,3.5,70,-99.99,,,-99.99,VWS V14.01,2013-08-14 00:39:00,
2013-08-13 20:40:00,65.9,56.1,29.87,West,270,0.0,8.2,71,-99.99,,,-99.99,VWS V14.01,2013-08-14 00:40:00,
2013-08-13 20:41:00,65.9,56.0,29.87,NW,318,5.7,6.0,70,-99.99,,,-99.99,VWS V14.01,2013-08-14 00:41:00,
2013-08-13 20:42:00,65.8,56.0,29.87,NW,318,4.8,5.7,71,-99.99,,,-99.99,VWS V14.01,2013-08-14 00:42:00,
2013-08-13 20:43:00,65.7,55.9,29.87,WNW,294,0.0,6.8,71,-99.99,,,-99.99,VWS V14.01,2013-08-14 00:43:00,
2013-08-13 20:44:00,65.6,56.2,29.87,WNW,292,3.4,4.4,72,-99.99,,,-99.99,VWS V14.01,2013-08-14 00:44:00,
2013-08-13 20:45:00,65.6,56.2,29.87,NW,305,0.0,6.1,72,-99.99,,,-99.99,VWS V14.01,2013-08-14 00:45:00,
2013-08-13 20:46:00,65.6,56.2,29.87,West,266,0.0,4.7,72,-99.99,,,-99.99,VWS V14.01,2013-08-14 00:46:00,
2013-08-13 20:47:00,65.6,56.1,29.87,West,266,0.0,0.0,71,-99.99,,,-99.99,VWS V14.01,2013-08-14 00:47:00,
2013-08-13 20:48:00,65.5,56.1,29.87,West,266,0.0,0.0,72,-99.99,,,-99.99,VWS V14.01,2013-08-14 00:48:00,
2013-08-13 20:49:00,65.6,56.4,29.88,North,349,0.0,4.5,72,-99.99,,,-99.99,VWS V14.01,2013-08-14 00:49:00,
2013-08-13 20:50:00,65.5,56.2,29.88,South,186,0.0,3.4,72,-99.99,,,-99.99,VWS V14.01,2013-08-14 00:50:00,
2013-08-13 20:51:00,65.4,56.0,29.88,North,349,0.0,4.5,72,-99.99,,,-99.99,VWS V14.01,2013-08-14 00:51:00,
2013-08-13 20:52:00,65.4,56.1,29.88,North,349,0.0,0.0,72,-99.99,,,-99.99,VWS V14.01,2013-08-14 00:52:00,
2013-08-13 20:53:00,65.4,56.2,29.88,North,349,0.0,0.0,72,-99.99,,,-99.99,VWS V14.01,2013-08-14 00:53:00,
2013-08-13 20:54:00,65.5,55.9,29.88,West,269,0.0,0.0,71,-99.99,,,-99.99,VWS V14.01,2013-08-14 00:54:00,
2013-08-13 20:55:00,65.4,55.8,29.88,West,269,0.0,0.0,71,-99.99,,,-99.99,VWS V14.01,2013-08-14 00:55:00,
2013-08-13 20:56:00,65.4,55.9,29.88,West,269,0.0,0.0,71,-99.99,,,-99.99,VWS V14.01,2013-08-14 00:56:00,
2013-08-13 20:57:00,65.4,56.0,29.88,West,269,0.0,0.0,72,-99.99,,,-99.99,VWS V14.01,2013-08-14 00:57:00,
2013-08-13 20:58:00,65.4,55.9,29.88,West,269,0.0,0.0,71,-99.99,,,-99.99,VWS V14.01,2013-08-14 00:58:00,
2013-08-13 20:59:00,65.2,55.5,29.88,North,350,0.0,7.5,71,-99.99,,,-99.99,VWS V14.01,2013-08-14 00:59:00,
2013-08-13 21:00:00,65.3,55.7,29.88,WNW,298,2.2,6.4,71,-99.99,,,-99.99,VWS V14.01,2013-08-14 01:00:00,
2013-08-13 21:01:00,65.3,55.6,29.88,North,350,0.0,7.5,71,-99.99,,,-99.99,VWS V14.01,2013-08-14 01:01:00,
2013-08-13 21:02:00,65.2,55.4,29.88,North,350,1.9,1.9,70,-99.99,,,-99.99,VWS V14.01,2013-08-14 01:02:00,
2013-08-13 21:03:00,65.2,55.5,29.88,NNW,338,4.3,6.5,71,-99.99,,,-99.99,VWS V14.01,2013-08-14 01:03:00,
2013-08-13 21:04:00,65.1,55.6,29.88,WSW,255,0.0,0.0,71,-99.99,,,-99.99,VWS V14.01,2013-08-14 01:04:00,
2013-08-13 21:05:00,65.1,55.6,29.88,WSW,255,0.0,4.5,71,-99.99,,,-99.99,VWS V14.01,2013-08-14 01:05:00,
2013-08-13 21:06:00,65.0,55.5,29.88,WSW,255,0.0,0.0,71,-99.99,,,-99.99,VWS V14.01,2013-08-14 01:06:00,
2013-08-13 21:07:00,64.9,55.4,29.88,WSW,255,0.0,2.7,71,-99.99,,,-99.99,VWS V14.01,2013-08-14 01:07:00,
2013-08-13 21:08:00,64.8,55.4,29.89,WSW,255,0.0,0.0,72,-99.99,,,-99.99,VWS V14.01,2013-08-14 01:08:00,
2013-08-13 21:09:00,64.8,55.7,29.89,WNW,301,0.0,0.0,72,-99.99,,,-99.99,VWS V14.01,2013-08-14 01:09:00,
2013-08-13 21:10:00,64.8,55.6,29.89,WNW,301,0.0,5.2,72,-99.99,,,-99.99,VWS V14.01,2013-08-14 01:10:00,
2013-08-13 21:11:00,64.8,55.7,29.89,WNW,301,0.0,0.0,72,-99.99,,,-99.99,VWS V14.01,2013-08-14 01:11:00,
2013-08-13 21:12:00,64.8,55.7,29.89,WNW,300,3.4,5.4,72,-99.99,,,-99.99,VWS V14.01,2013-08-14 01:12:00,
2013-08-13 21:13:00,64.8,55.8,29.89,WNW,297,0.0,5.8,72,-99.99,,,-99.99,VWS V14.01,2013-08-14 01:13:00,
2013-08-13 21:14:00,64.6,55.4,29.89,West,264,0.0,5.5,72,-99.99,,,-99.99,VWS V14.01,2013-08-14 01:14:00,
2013-08-13 21:15:00,64.7,55.5,29.89,WNW,292,5.5,5.9,72,-99.99,,,-99.99,VWS V14.01,2013-08-14 01:15:00,
2013-08-13 21:16:00,64.6,55.3,29.89,WNW,287,2.7,5.7,72,-99.99,,,-99.99,VWS V14.01,2013-08-14 01:16:00,
2013-08-13 21:17:00,64.4,55.2,29.89,West,267,0.0,10.9,72,-99.99,,,-99.99,VWS V14.01,2013-08-14 01:17:00,
2013-08-13 21:18:00,64.5,55.3,29.89,West,267,0.0,3.0,72,-99.99,,,-99.99,VWS V14.01,2013-08-14 01:18:00,
2013-08-13 21:19:00,64.3,55.1,29.89,WSW,248,0.0,0.0,72,-99.99,,,-99.99,VWS V14.01,2013-08-14 01:19:00,
2013-08-13 21:20:00,64.3,55.1,29.90,WSW,248,0.0,0.0,72,-99.99,,,-99.99,VWS V14.01,2013-08-14 01:20:00,
2013-08-13 21:21:00,64.3,55.0,29.90,WSW,248,0.0,0.0,72,-99.99,,,-99.99,VWS V14.01,2013-08-14 01:21:00,
2013-08-13 21:22:00,64.3,55.0,29.90,WNW,287,4.8,10.4,72,-99.99,,,-99.99,VWS V14.01,2013-08-14 01:22:00,
2013-08-13 21:23:00,64.2,54.9,29.90,WNW,290,3.4,11.7,72,-99.99,,,-99.99,VWS V14.01,2013-08-14 01:23:00,
2013-08-13 21:24:00,64.1,54.8,29.90,NNW,330,4.5,6.2,72,-99.99,,,-99.99,VWS V14.01,2013-08-14 01:24:00,
2013-08-13 21:25:00,64.1,54.8,29.90,WNW,302,2.9,5.5,72,-99.99,,,-99.99,VWS V14.01,2013-08-14 01:25:00,
2013-08-13 21:26:00,64.0,54.7,29.90,NW,316,0.0,6.2,72,-99.99,,,-99.99,VWS V14.01,2013-08-14 01:26:00,
2013-08-13 21:27:00,64.0,54.7,29.90,NW,316,0.0,0.0,72,-99.99,,,-99.99,VWS V14.01,2013-08-14 01:27:00,
2013-08-13 21:28:00,64.0,54.7,29.90,WNW,298,0.0,9.6,72,-99.99,,,-99.99,VWS V14.01,2013-08-14 01:28:00,
2013-08-13 21:29:00,63.9,54.6,29.90,WNW,298,0.0,0.0,72,-99.99,,,-99.99,VWS V14.01,2013-08-14 01:29:00,
2013-08-13 21:30:00,64.0,54.7,29.90,WNW,298,0.0,0.0,72,-99.99,,,-99.99,VWS V14.01,2013-08-14 01:30:00,
2013-08-13 21:31:00,63.9,54.6,29.90,WNW,298,0.0,0.0,72,-99.99,,,-99.99,VWS V14.01,2013-08-14 01:31:00,
2013-08-13 21:32:00,63.9,54.6,29.90,WNW,295,3.0,3.0,72,-99.99,,,-99.99,VWS V14.01,2013-08-14 01:32:00,
2013-08-13 21:33:00,63.9,54.6,29.90,WNW,295,0.0,3.0,72,-99.99,,,-99.99,VWS V14.01,2013-08-14 01:33:00,
2013-08-13 21:34:00,63.7,54.4,29.90,WNW,295,0.0,0.0,72,-99.99,,,-99.99,VWS V14.01,2013-08-14 01:34:00,
2013-08-13 21:35:00,63.8,54.5,29.90,WNW,295,0.0,0.0,72,-99.99,,,-99.99,VWS V14.01,2013-08-14 01:35:00,
2013-08-13 21:36:00,63.7,54.3,29.90,West,259,3.0,6.4,71,-99.99,,,-99.99,VWS V14.01,2013-08-14 01:36:00,
2013-08-13 21:37:00,63.7,54.3,29.90,North,359,3.5,8.2,71,-99.99,,,-99.99,VWS V14.01,2013-08-14 01:37:00,
2013-08-13 21:38:00,63.6,54.2,29.90,WNW,295,0.0,4.2,71,-99.99,,,-99.99,VWS V14.01,2013-08-14 01:38:00,
2013-08-13 21:39:00,63.5,54.2,29.91,West,274,0.0,0.0,72,-99.99,,,-99.99,VWS V14.01,2013-08-14 01:39:00,
2013-08-13 21:40:00,63.5,54.2,29.90,West,274,0.0,0.0,72,-99.99,,,-99.99,VWS V14.01,2013-08-14 01:40:00,
2013-08-13 21:41:00,63.4,54.2,29.91,West,274,0.0,0.0,72,-99.99,,,-99.99,VWS V14.01,2013-08-14 01:41:00,
2013-08-13 21:42:00,63.4,54.2,29.91,West,274,0.0,0.0,72,-99.99,,,-99.99,VWS V14.01,2013-08-14 01:42:00,
2013-08-13 21:43:00,63.4,54.3,29.91,West,274,0.0,0.0,72,-99.99,,,-99.99,VWS V14.01,2013-08-14 01:43:00,
2013-08-13 21:44:00,63.2,54.0,29.91,SSW,210,0.0,4.2,72,-99.99,,,-99.99,VWS V14.01,2013-08-14 01:44:00,
2013-08-13 21:45:00,63.2,54.0,29.91,West,274,0.0,0.0,72,-99.99,,,-99.99,VWS V14.01,2013-08-14 01:45:00,
2013-08-13 21:46:00,63.2,54.1,29.91,West,277,0.0,8.6,72,-99.99,,,-99.99,VWS V14.01,2013-08-14 01:46:00,
2013-08-13 21:47:00,63.2,54.1,29.91,WNW,294,3.4,7.6,72,-99.99,,,-99.99,VWS V14.01,2013-08-14 01:47:00,
2013-08-13 21:48:00,63.2,54.1,29.92,WNW,294,0.0,3.4,72,-99.99,,,-99.99,VWS V14.01,2013-08-14 01:48:00,
2013-08-13 21:49:00,63.1,53.9,29.92,West,277,0.0,0.0,72,-99.99,,,-99.99,VWS V14.01,2013-08-14 01:49:00,
2013-08-13 21:50:00,63.1,53.9,29.92,West,277,0.0,5.0,72,-99.99,,,-99.99,VWS V14.01,2013-08-14 01:50:00,
2013-08-13 21:51:00,63.0,53.7,29.92,WNW,291,4.2,4.9,72,-99.99,,,-99.99,VWS V14.01,2013-08-14 01:51:00,
2013-08-13 21:52:00,63.0,53.3,29.92,NW,308,0.0,7.0,71,-99.99,,,-99.99,VWS V14.01,2013-08-14 01:52:00,
2013-08-13 21:53:00,62.9,53.3,29.92,NW,309,0.0,7.0,71,-99.99,,,-99.99,VWS V14.01,2013-08-14 01:53:00,
2013-08-13 21:54:00,62.7,53.0,29.92,WNW,297,11.5,12.4,71,-99.99,,,-99.99,VWS V14.01,2013-08-14 01:54:00,
2013-08-13 21:55:00,62.9,53.4,29.92,WNW,295,0.0,0.0,71,-99.99,,,-99.99,VWS V14.01,2013-08-14 01:55:00,
2013-08-13 21:56:00,62.7,52.8,29.92,SSW,208,0.0,12.4,70,-99.99,,,-99.99,VWS V14.01,2013-08-14 01:56:00,
2013-08-13 21:57:00,62.7,52.7,29.92,SSW,208,0.0,0.0,70,-99.99,,,-99.99,VWS V14.01,2013-08-14 01:57:00,
2013-08-13 21:58:00,62.6,52.7,29.92,NW,318,0.0,6.2,70,-99.99,,,-99.99,VWS V14.01,2013-08-14 01:58:00,
2013-08-13 21:59:00,62.4,52.4,29.92,West,264,4.3,7.3,70,-99.99,,,-99.99,VWS V14.01,2013-08-14 01:59:00,
2013-08-13 22:00:00,62.4,52.5,29.92,NW,326,7.3,9.4,70,-99.99,,,-99.99,VWS V14.01,2013-08-14 02:00:00,
2013-08-13 22:01:00,62.4,52.6,29.92,North,1,9.0,9.0,70,-99.99,,,-99.99,VWS V14.01,2013-08-14 02:01:00,
2013-08-13 22:02:00,62.3,52.6,29.92,West,266,5.2,9.0,70,-99.99,,,-99.99,VWS V14.01,2013-08-14 02:02:00,
2013-08-13 22:03:00,62.3,52.4,29.92,WNW,295,4.2,6.3,70,-99.99,,,-99.99,VWS V14.01,2013-08-14 02:03:00,
2013-08-13 22:04:00,62.2,52.2,29.92,NW,318,0.0,0.0,70,-99.99,,,-99.99,VWS V14.01,2013-08-14 02:04:00,
2013-08-13 22:05:00,62.2,52.3,29.92,NW,318,0.0,5.7,70,-99.99,,,-99.99,VWS V14.01,2013-08-14 02:05:00,
2013-08-13 22:06:00,62.2,52.3,29.92,NW,318,0.0,0.0,70,-99.99,,,-99.99,VWS V14.01,2013-08-14 02:06:00,
2013-08-13 22:07:00,62.2,52.3,29.92,NW,318,0.0,1.7,70,-99.99,,,-99.99,VWS V14.01,2013-08-14 02:07:00,
2013-08-13 22:08:00,62.1,52.0,29.92,NW,314,5.0,7.1,69,-99.99,,,-99.99,VWS V14.01,2013-08-14 02:08:00,